<?xml version="1.0" encoding="UTF-8" standalone="no" ?>
<gpx xmlns="http://www.topografix.com/GPX/1/1" xmlns:xsi="http://www.w3.org/2001/XMLSchema-instance" xsi:schemaLocation="http://www.topografix.com/GPX/1/1 http://www.topografix.com/GPX/1/1/gpx.xsd" version="1.1" creator="VisuGPX - https://www.visugpx.com">
  <metadata>
    <name>Tauves</name>
  </metadata>
  <trk>
    <name><![CDATA[Tauves_1]]></name>
    <extensions>
      <line xmlns="http://www.topografix.com/GPX/gpx_style/0/2">
        <color>0000FF</color>
        <width>4</width>
      </line>
    </extensions>
    <trkseg>
      <trkpt lat="45.56123" lon="2.62535">
        <ele>861.6</ele>
        <time>2023-09-02T14:15:57Z</time>
      </trkpt>
      <trkpt lat="45.56118" lon="2.62524">
        <ele>862</ele>
        <time>2023-09-02T14:16:07Z</time>
      </trkpt>
      <trkpt lat="45.56112" lon="2.62499">
        <ele>862</ele>
        <time>2023-09-02T14:16:25Z</time>
      </trkpt>
      <trkpt lat="45.56099" lon="2.62453">
        <ele>862.2</ele>
        <time>2023-09-02T14:16:53Z</time>
      </trkpt>
      <trkpt lat="45.56087" lon="2.62449">
        <ele>861.6</ele>
        <time>2023-09-02T14:17:07Z</time>
      </trkpt>
      <trkpt lat="45.56086" lon="2.62449">
        <ele>861.4</ele>
        <time>2023-09-02T14:17:08Z</time>
      </trkpt>
      <trkpt lat="45.56079" lon="2.62451">
        <ele>861.2</ele>
        <time>2023-09-02T14:17:13Z</time>
      </trkpt>
      <trkpt lat="45.56062" lon="2.62453">
        <ele>859.8</ele>
        <time>2023-09-02T14:17:25Z</time>
      </trkpt>
      <trkpt lat="45.56056" lon="2.62452">
        <ele>859.4</ele>
        <time>2023-09-02T14:17:31Z</time>
      </trkpt>
      <trkpt lat="45.56049" lon="2.62445">
        <ele>858.4</ele>
        <time>2023-09-02T14:17:40Z</time>
      </trkpt>
      <trkpt lat="45.56047" lon="2.62436">
        <ele>857.2</ele>
        <time>2023-09-02T14:17:48Z</time>
      </trkpt>
      <trkpt lat="45.56048" lon="2.62413">
        <ele>857</ele>
        <time>2023-09-02T14:18:00Z</time>
      </trkpt>
      <trkpt lat="45.56048" lon="2.62407">
        <ele>857</ele>
        <time>2023-09-02T14:18:03Z</time>
      </trkpt>
      <trkpt lat="45.56048" lon="2.6239">
        <ele>856.8</ele>
        <time>2023-09-02T14:18:12Z</time>
      </trkpt>
      <trkpt lat="45.5606" lon="2.62375">
        <ele>856.6</ele>
        <time>2023-09-02T14:18:25Z</time>
      </trkpt>
      <trkpt lat="45.56079" lon="2.62361">
        <ele>857.4</ele>
        <time>2023-09-02T14:18:42Z</time>
      </trkpt>
      <trkpt lat="45.56082" lon="2.62358">
        <ele>857.4</ele>
        <time>2023-09-02T14:18:45Z</time>
      </trkpt>
      <trkpt lat="45.56092" lon="2.62345">
        <ele>857</ele>
        <time>2023-09-02T14:18:57Z</time>
      </trkpt>
      <trkpt lat="45.56094" lon="2.62342">
        <ele>856.8</ele>
        <time>2023-09-02T14:19:00Z</time>
      </trkpt>
      <trkpt lat="45.56101" lon="2.62336">
        <ele>856.4</ele>
        <time>2023-09-02T14:19:07Z</time>
      </trkpt>
      <trkpt lat="45.56106" lon="2.62333">
        <ele>856</ele>
        <time>2023-09-02T14:19:12Z</time>
      </trkpt>
      <trkpt lat="45.56108" lon="2.62331">
        <ele>855.8</ele>
        <time>2023-09-02T14:19:15Z</time>
      </trkpt>
      <trkpt lat="45.56114" lon="2.62328">
        <ele>855.6</ele>
        <time>2023-09-02T14:19:22Z</time>
      </trkpt>
      <trkpt lat="45.56116" lon="2.62329">
        <ele>855.6</ele>
        <time>2023-09-02T14:19:24Z</time>
      </trkpt>
      <trkpt lat="45.56124" lon="2.6233">
        <ele>855</ele>
        <time>2023-09-02T14:19:32Z</time>
      </trkpt>
      <trkpt lat="45.5613" lon="2.62324">
        <ele>854.8</ele>
        <time>2023-09-02T14:19:38Z</time>
      </trkpt>
      <trkpt lat="45.56152" lon="2.62322">
        <ele>853.4</ele>
        <time>2023-09-02T14:19:53Z</time>
      </trkpt>
      <trkpt lat="45.56166" lon="2.62325">
        <ele>852.6</ele>
        <time>2023-09-02T14:20:08Z</time>
      </trkpt>
      <trkpt lat="45.56179" lon="2.62326">
        <ele>853.4</ele>
        <time>2023-09-02T14:20:23Z</time>
      </trkpt>
      <trkpt lat="45.56199" lon="2.62331">
        <ele>854.2</ele>
        <time>2023-09-02T14:20:38Z</time>
      </trkpt>
      <trkpt lat="45.56209" lon="2.62328">
        <ele>854.6</ele>
        <time>2023-09-02T14:20:46Z</time>
      </trkpt>
      <trkpt lat="45.5621" lon="2.62329">
        <ele>854.8</ele>
        <time>2023-09-02T14:20:48Z</time>
      </trkpt>
      <trkpt lat="45.56223" lon="2.62335">
        <ele>855.6</ele>
        <time>2023-09-02T14:20:59Z</time>
      </trkpt>
      <trkpt lat="45.56232" lon="2.62334">
        <ele>855.8</ele>
        <time>2023-09-02T14:21:05Z</time>
      </trkpt>
      <trkpt lat="45.56238" lon="2.62331">
        <ele>856.4</ele>
        <time>2023-09-02T14:21:10Z</time>
      </trkpt>
      <trkpt lat="45.56243" lon="2.62329">
        <ele>856.8</ele>
        <time>2023-09-02T14:21:15Z</time>
      </trkpt>
      <trkpt lat="45.5625" lon="2.62318">
        <ele>858</ele>
        <time>2023-09-02T14:21:29Z</time>
      </trkpt>
      <trkpt lat="45.56255" lon="2.62315">
        <ele>858.4</ele>
        <time>2023-09-02T14:21:37Z</time>
      </trkpt>
      <trkpt lat="45.56257" lon="2.62314">
        <ele>858.8</ele>
        <time>2023-09-02T14:21:39Z</time>
      </trkpt>
      <trkpt lat="45.5626" lon="2.62312">
        <ele>859.2</ele>
        <time>2023-09-02T14:21:42Z</time>
      </trkpt>
      <trkpt lat="45.56268" lon="2.62312">
        <ele>859.6</ele>
        <time>2023-09-02T14:21:47Z</time>
      </trkpt>
      <trkpt lat="45.56279" lon="2.62301">
        <ele>860.8</ele>
        <time>2023-09-02T14:21:59Z</time>
      </trkpt>
      <trkpt lat="45.56287" lon="2.62287">
        <ele>862</ele>
        <time>2023-09-02T14:22:11Z</time>
      </trkpt>
      <trkpt lat="45.56291" lon="2.62284">
        <ele>862.8</ele>
        <time>2023-09-02T14:22:16Z</time>
      </trkpt>
      <trkpt lat="45.56301" lon="2.62282">
        <ele>864.8</ele>
        <time>2023-09-02T14:22:27Z</time>
      </trkpt>
      <trkpt lat="45.56314" lon="2.62277">
        <ele>868</ele>
        <time>2023-09-02T14:22:43Z</time>
      </trkpt>
      <trkpt lat="45.56321" lon="2.62272">
        <ele>870.4</ele>
        <time>2023-09-02T14:22:59Z</time>
      </trkpt>
      <trkpt lat="45.5632" lon="2.62269">
        <ele>870.8</ele>
        <time>2023-09-02T14:23:34Z</time>
      </trkpt>
      <trkpt lat="45.56325" lon="2.6227">
        <ele>871.2</ele>
        <time>2023-09-02T14:23:53Z</time>
      </trkpt>
      <trkpt lat="45.56336" lon="2.62266">
        <ele>872.8</ele>
        <time>2023-09-02T14:24:07Z</time>
      </trkpt>
      <trkpt lat="45.56346" lon="2.62257">
        <ele>874</ele>
        <time>2023-09-02T14:24:19Z</time>
      </trkpt>
      <trkpt lat="45.5635" lon="2.6224">
        <ele>876.4</ele>
        <time>2023-09-02T14:24:39Z</time>
      </trkpt>
      <trkpt lat="45.56347" lon="2.62231">
        <ele>877</ele>
        <time>2023-09-02T14:24:45Z</time>
      </trkpt>
      <trkpt lat="45.56344" lon="2.62219">
        <ele>878.6</ele>
        <time>2023-09-02T14:24:54Z</time>
      </trkpt>
      <trkpt lat="45.56337" lon="2.6221">
        <ele>880.2</ele>
        <time>2023-09-02T14:25:04Z</time>
      </trkpt>
      <trkpt lat="45.56335" lon="2.62208">
        <ele>880.2</ele>
        <time>2023-09-02T14:25:06Z</time>
      </trkpt>
      <trkpt lat="45.56328" lon="2.62204">
        <ele>881.4</ele>
        <time>2023-09-02T14:25:40Z</time>
      </trkpt>
      <trkpt lat="45.56323" lon="2.62197">
        <ele>881.4</ele>
        <time>2023-09-02T14:25:57Z</time>
      </trkpt>
      <trkpt lat="45.56325" lon="2.62181">
        <ele>881.8</ele>
        <time>2023-09-02T14:26:05Z</time>
      </trkpt>
      <trkpt lat="45.56328" lon="2.62165">
        <ele>883.6</ele>
        <time>2023-09-02T14:26:19Z</time>
      </trkpt>
      <trkpt lat="45.56332" lon="2.62159">
        <ele>884.8</ele>
        <time>2023-09-02T14:26:27Z</time>
      </trkpt>
      <trkpt lat="45.56338" lon="2.62151">
        <ele>886.6</ele>
        <time>2023-09-02T14:26:37Z</time>
      </trkpt>
      <trkpt lat="45.56345" lon="2.62152">
        <ele>888.8</ele>
        <time>2023-09-02T14:26:52Z</time>
      </trkpt>
      <trkpt lat="45.56353" lon="2.62149">
        <ele>891.4</ele>
        <time>2023-09-02T14:27:09Z</time>
      </trkpt>
      <trkpt lat="45.56358" lon="2.62154">
        <ele>891.8</ele>
        <time>2023-09-02T14:27:19Z</time>
      </trkpt>
      <trkpt lat="45.56374" lon="2.62161">
        <ele>894.4</ele>
        <time>2023-09-02T14:27:37Z</time>
      </trkpt>
      <trkpt lat="45.56377" lon="2.62165">
        <ele>896</ele>
        <time>2023-09-02T14:27:46Z</time>
      </trkpt>
      <trkpt lat="45.56383" lon="2.62165">
        <ele>897.8</ele>
        <time>2023-09-02T14:27:56Z</time>
      </trkpt>
      <trkpt lat="45.56393" lon="2.62166">
        <ele>900.2</ele>
        <time>2023-09-02T14:28:11Z</time>
      </trkpt>
      <trkpt lat="45.56394" lon="2.62166">
        <ele>900.4</ele>
        <time>2023-09-02T14:28:12Z</time>
      </trkpt>
      <trkpt lat="45.56408" lon="2.62169">
        <ele>902.8</ele>
        <time>2023-09-02T14:28:25Z</time>
      </trkpt>
      <trkpt lat="45.5641" lon="2.6217">
        <ele>903.2</ele>
        <time>2023-09-02T14:28:27Z</time>
      </trkpt>
      <trkpt lat="45.56424" lon="2.62168">
        <ele>905</ele>
        <time>2023-09-02T14:28:41Z</time>
      </trkpt>
      <trkpt lat="45.56428" lon="2.6217">
        <ele>906</ele>
        <time>2023-09-02T14:28:56Z</time>
      </trkpt>
      <trkpt lat="45.56429" lon="2.62173">
        <ele>906</ele>
        <time>2023-09-02T14:28:59Z</time>
      </trkpt>
      <trkpt lat="45.56431" lon="2.62167">
        <ele>906.4</ele>
        <time>2023-09-02T14:29:19Z</time>
      </trkpt>
      <trkpt lat="45.5643" lon="2.62165">
        <ele>906.8</ele>
        <time>2023-09-02T14:29:35Z</time>
      </trkpt>
      <trkpt lat="45.56432" lon="2.62173">
        <ele>906.8</ele>
        <time>2023-09-02T14:30:00Z</time>
      </trkpt>
      <trkpt lat="45.56436" lon="2.62174">
        <ele>906.8</ele>
        <time>2023-09-02T14:30:16Z</time>
      </trkpt>
      <trkpt lat="45.56437" lon="2.62172">
        <ele>907</ele>
        <time>2023-09-02T14:30:37Z</time>
      </trkpt>
      <trkpt lat="45.5644" lon="2.62174">
        <ele>907.2</ele>
        <time>2023-09-02T14:31:02Z</time>
      </trkpt>
      <trkpt lat="45.56441" lon="2.62174">
        <ele>907.6</ele>
        <time>2023-09-02T14:31:12Z</time>
      </trkpt>
      <trkpt lat="45.56447" lon="2.62177">
        <ele>907.6</ele>
        <time>2023-09-02T14:31:16Z</time>
      </trkpt>
      <trkpt lat="45.56455" lon="2.62178">
        <ele>907.6</ele>
        <time>2023-09-02T14:31:24Z</time>
      </trkpt>
      <trkpt lat="45.56464" lon="2.62179">
        <ele>908</ele>
        <time>2023-09-02T14:31:34Z</time>
      </trkpt>
      <trkpt lat="45.56468" lon="2.62176">
        <ele>909.2</ele>
        <time>2023-09-02T14:31:46Z</time>
      </trkpt>
      <trkpt lat="45.56471" lon="2.62176">
        <ele>909.4</ele>
        <time>2023-09-02T14:31:50Z</time>
      </trkpt>
      <trkpt lat="45.56476" lon="2.62177">
        <ele>909.2</ele>
        <time>2023-09-02T14:31:55Z</time>
      </trkpt>
      <trkpt lat="45.56479" lon="2.62176">
        <ele>909.2</ele>
        <time>2023-09-02T14:32:00Z</time>
      </trkpt>
      <trkpt lat="45.56488" lon="2.62173">
        <ele>910</ele>
        <time>2023-09-02T14:32:11Z</time>
      </trkpt>
      <trkpt lat="45.56498" lon="2.62175">
        <ele>910.8</ele>
        <time>2023-09-02T14:32:29Z</time>
      </trkpt>
      <trkpt lat="45.56503" lon="2.62172">
        <ele>911</ele>
        <time>2023-09-02T14:32:33Z</time>
      </trkpt>
      <trkpt lat="45.56507" lon="2.62171">
        <ele>911.2</ele>
        <time>2023-09-02T14:32:38Z</time>
      </trkpt>
      <trkpt lat="45.56514" lon="2.62169">
        <ele>911.8</ele>
        <time>2023-09-02T14:32:47Z</time>
      </trkpt>
      <trkpt lat="45.56526" lon="2.62169">
        <ele>912.6</ele>
        <time>2023-09-02T14:32:57Z</time>
      </trkpt>
      <trkpt lat="45.56527" lon="2.62169">
        <ele>912.6</ele>
        <time>2023-09-02T14:32:58Z</time>
      </trkpt>
      <trkpt lat="45.56532" lon="2.62169">
        <ele>912.8</ele>
        <time>2023-09-02T14:33:01Z</time>
      </trkpt>
      <trkpt lat="45.56551" lon="2.62169">
        <ele>913.6</ele>
        <time>2023-09-02T14:33:14Z</time>
      </trkpt>
      <trkpt lat="45.56575" lon="2.62165">
        <ele>914.6</ele>
        <time>2023-09-02T14:33:30Z</time>
      </trkpt>
      <trkpt lat="45.56594" lon="2.62165">
        <ele>915</ele>
        <time>2023-09-02T14:33:45Z</time>
      </trkpt>
      <trkpt lat="45.56599" lon="2.62163">
        <ele>915.2</ele>
        <time>2023-09-02T14:33:54Z</time>
      </trkpt>
      <trkpt lat="45.56603" lon="2.62163">
        <ele>915.2</ele>
        <time>2023-09-02T14:33:58Z</time>
      </trkpt>
      <trkpt lat="45.56624" lon="2.6216">
        <ele>915.8</ele>
        <time>2023-09-02T14:34:15Z</time>
      </trkpt>
      <trkpt lat="45.56626" lon="2.62159">
        <ele>916</ele>
        <time>2023-09-02T14:34:32Z</time>
      </trkpt>
      <trkpt lat="45.56627" lon="2.62158">
        <ele>916</ele>
        <time>2023-09-02T14:34:44Z</time>
      </trkpt>
      <trkpt lat="45.56635" lon="2.62157">
        <ele>916.4</ele>
        <time>2023-09-02T14:34:59Z</time>
      </trkpt>
      <trkpt lat="45.56656" lon="2.62153">
        <ele>916.4</ele>
        <time>2023-09-02T14:35:15Z</time>
      </trkpt>
      <trkpt lat="45.5666" lon="2.62153">
        <ele>916.4</ele>
        <time>2023-09-02T14:35:18Z</time>
      </trkpt>
      <trkpt lat="45.56685" lon="2.62149">
        <ele>917</ele>
        <time>2023-09-02T14:35:38Z</time>
      </trkpt>
      <trkpt lat="45.56698" lon="2.62148">
        <ele>917</ele>
        <time>2023-09-02T14:35:50Z</time>
      </trkpt>
      <trkpt lat="45.56705" lon="2.62146">
        <ele>917.4</ele>
        <time>2023-09-02T14:35:57Z</time>
      </trkpt>
      <trkpt lat="45.56708" lon="2.62145">
        <ele>917.4</ele>
        <time>2023-09-02T14:36:00Z</time>
      </trkpt>
      <trkpt lat="45.5671" lon="2.62145">
        <ele>917.4</ele>
        <time>2023-09-02T14:36:02Z</time>
      </trkpt>
      <trkpt lat="45.5671" lon="2.62147">
        <ele>917.6</ele>
        <time>2023-09-02T14:36:22Z</time>
      </trkpt>
      <trkpt lat="45.56714" lon="2.62146">
        <ele>917.8</ele>
        <time>2023-09-02T14:36:36Z</time>
      </trkpt>
      <trkpt lat="45.56736" lon="2.62141">
        <ele>918</ele>
        <time>2023-09-02T14:36:54Z</time>
      </trkpt>
      <trkpt lat="45.56759" lon="2.62136">
        <ele>917.8</ele>
        <time>2023-09-02T14:37:11Z</time>
      </trkpt>
      <trkpt lat="45.56784" lon="2.62131">
        <ele>918</ele>
        <time>2023-09-02T14:37:27Z</time>
      </trkpt>
      <trkpt lat="45.56805" lon="2.6213">
        <ele>918.6</ele>
        <time>2023-09-02T14:37:45Z</time>
      </trkpt>
      <trkpt lat="45.56828" lon="2.62126">
        <ele>919.4</ele>
        <time>2023-09-02T14:38:04Z</time>
      </trkpt>
      <trkpt lat="45.56855" lon="2.62124">
        <ele>919.8</ele>
        <time>2023-09-02T14:38:23Z</time>
      </trkpt>
      <trkpt lat="45.56876" lon="2.62122">
        <ele>920.2</ele>
        <time>2023-09-02T14:38:39Z</time>
      </trkpt>
      <trkpt lat="45.56898" lon="2.6212">
        <ele>920.6</ele>
        <time>2023-09-02T14:38:58Z</time>
      </trkpt>
      <trkpt lat="45.56919" lon="2.62119">
        <ele>921</ele>
        <time>2023-09-02T14:39:15Z</time>
      </trkpt>
      <trkpt lat="45.56945" lon="2.62123">
        <ele>921</ele>
        <time>2023-09-02T14:39:32Z</time>
      </trkpt>
      <trkpt lat="45.56967" lon="2.62127">
        <ele>921</ele>
        <time>2023-09-02T14:39:50Z</time>
      </trkpt>
      <trkpt lat="45.56987" lon="2.62127">
        <ele>921.4</ele>
        <time>2023-09-02T14:40:05Z</time>
      </trkpt>
      <trkpt lat="45.56992" lon="2.62124">
        <ele>921.6</ele>
        <time>2023-09-02T14:40:15Z</time>
      </trkpt>
      <trkpt lat="45.56998" lon="2.6211">
        <ele>922</ele>
        <time>2023-09-02T14:40:24Z</time>
      </trkpt>
      <trkpt lat="45.57002" lon="2.62075">
        <ele>922.4</ele>
        <time>2023-09-02T14:40:44Z</time>
      </trkpt>
      <trkpt lat="45.57005" lon="2.62056">
        <ele>921.2</ele>
        <time>2023-09-02T14:41:01Z</time>
      </trkpt>
      <trkpt lat="45.57013" lon="2.62028">
        <ele>920.6</ele>
        <time>2023-09-02T14:41:17Z</time>
      </trkpt>
      <trkpt lat="45.57014" lon="2.62023">
        <ele>920.4</ele>
        <time>2023-09-02T14:41:20Z</time>
      </trkpt>
      <trkpt lat="45.57029" lon="2.61992">
        <ele>919</ele>
        <time>2023-09-02T14:41:40Z</time>
      </trkpt>
      <trkpt lat="45.57039" lon="2.61961">
        <ele>918.4</ele>
        <time>2023-09-02T14:41:59Z</time>
      </trkpt>
      <trkpt lat="45.57049" lon="2.61932">
        <ele>917.8</ele>
        <time>2023-09-02T14:42:16Z</time>
      </trkpt>
      <trkpt lat="45.57052" lon="2.61921">
        <ele>917.8</ele>
        <time>2023-09-02T14:42:22Z</time>
      </trkpt>
      <trkpt lat="45.57061" lon="2.61888">
        <ele>917.4</ele>
        <time>2023-09-02T14:42:41Z</time>
      </trkpt>
      <trkpt lat="45.57068" lon="2.61867">
        <ele>916.2</ele>
        <time>2023-09-02T14:42:54Z</time>
      </trkpt>
      <trkpt lat="45.5707" lon="2.61852">
        <ele>915.6</ele>
        <time>2023-09-02T14:43:11Z</time>
      </trkpt>
      <trkpt lat="45.5708" lon="2.61815">
        <ele>915.2</ele>
        <time>2023-09-02T14:43:35Z</time>
      </trkpt>
      <trkpt lat="45.57088" lon="2.6178">
        <ele>915</ele>
        <time>2023-09-02T14:43:51Z</time>
      </trkpt>
      <trkpt lat="45.57088" lon="2.61779">
        <ele>915</ele>
        <time>2023-09-02T14:43:52Z</time>
      </trkpt>
      <trkpt lat="45.57091" lon="2.61774">
        <ele>914.4</ele>
        <time>2023-09-02T14:44:03Z</time>
      </trkpt>
      <trkpt lat="45.57095" lon="2.61769">
        <ele>914.6</ele>
        <time>2023-09-02T14:44:15Z</time>
      </trkpt>
      <trkpt lat="45.57095" lon="2.61766">
        <ele>914.6</ele>
        <time>2023-09-02T14:44:28Z</time>
      </trkpt>
      <trkpt lat="45.57096" lon="2.61754">
        <ele>914.6</ele>
        <time>2023-09-02T14:44:34Z</time>
      </trkpt>
      <trkpt lat="45.57102" lon="2.61724">
        <ele>915</ele>
        <time>2023-09-02T14:44:50Z</time>
      </trkpt>
      <trkpt lat="45.57107" lon="2.61694">
        <ele>914.6</ele>
        <time>2023-09-02T14:45:06Z</time>
      </trkpt>
      <trkpt lat="45.57107" lon="2.61689">
        <ele>914.4</ele>
        <time>2023-09-02T14:45:09Z</time>
      </trkpt>
      <trkpt lat="45.57109" lon="2.61679">
        <ele>914.2</ele>
        <time>2023-09-02T14:45:15Z</time>
      </trkpt>
      <trkpt lat="45.5711" lon="2.61656">
        <ele>914</ele>
        <time>2023-09-02T14:45:30Z</time>
      </trkpt>
      <trkpt lat="45.57111" lon="2.61637">
        <ele>913.8</ele>
        <time>2023-09-02T14:45:40Z</time>
      </trkpt>
      <trkpt lat="45.57117" lon="2.6163">
        <ele>913</ele>
        <time>2023-09-02T14:45:58Z</time>
      </trkpt>
      <trkpt lat="45.57121" lon="2.61631">
        <ele>913</ele>
        <time>2023-09-02T14:46:10Z</time>
      </trkpt>
      <trkpt lat="45.57115" lon="2.61624">
        <ele>913</ele>
        <time>2023-09-02T14:46:13Z</time>
      </trkpt>
      <trkpt lat="45.57118" lon="2.61617">
        <ele>913</ele>
        <time>2023-09-02T14:46:24Z</time>
      </trkpt>
      <trkpt lat="45.57124" lon="2.61608">
        <ele>913</ele>
        <time>2023-09-02T14:46:40Z</time>
      </trkpt>
      <trkpt lat="45.57127" lon="2.61595">
        <ele>912.8</ele>
        <time>2023-09-02T14:46:57Z</time>
      </trkpt>
      <trkpt lat="45.57133" lon="2.61586">
        <ele>912.8</ele>
        <time>2023-09-02T14:47:05Z</time>
      </trkpt>
      <trkpt lat="45.57141" lon="2.61573">
        <ele>913</ele>
        <time>2023-09-02T14:47:19Z</time>
      </trkpt>
      <trkpt lat="45.57146" lon="2.61558">
        <ele>912.8</ele>
        <time>2023-09-02T14:47:29Z</time>
      </trkpt>
      <trkpt lat="45.57155" lon="2.61542">
        <ele>912.2</ele>
        <time>2023-09-02T14:47:41Z</time>
      </trkpt>
      <trkpt lat="45.57157" lon="2.61537">
        <ele>912.2</ele>
        <time>2023-09-02T14:47:45Z</time>
      </trkpt>
      <trkpt lat="45.57169" lon="2.6152">
        <ele>911.6</ele>
        <time>2023-09-02T14:47:57Z</time>
      </trkpt>
      <trkpt lat="45.57172" lon="2.61514">
        <ele>911.4</ele>
        <time>2023-09-02T14:48:02Z</time>
      </trkpt>
      <trkpt lat="45.5718" lon="2.61496">
        <ele>911.2</ele>
        <time>2023-09-02T14:48:13Z</time>
      </trkpt>
      <trkpt lat="45.57186" lon="2.61484">
        <ele>911</ele>
        <time>2023-09-02T14:48:20Z</time>
      </trkpt>
      <trkpt lat="45.57187" lon="2.61478">
        <ele>911</ele>
        <time>2023-09-02T14:48:22Z</time>
      </trkpt>
      <trkpt lat="45.57194" lon="2.61452">
        <ele>911.2</ele>
        <time>2023-09-02T14:48:35Z</time>
      </trkpt>
      <trkpt lat="45.57196" lon="2.61447">
        <ele>911</ele>
        <time>2023-09-02T14:48:38Z</time>
      </trkpt>
      <trkpt lat="45.57204" lon="2.61427">
        <ele>910.8</ele>
        <time>2023-09-02T14:48:50Z</time>
      </trkpt>
      <trkpt lat="45.57204" lon="2.61426">
        <ele>910.8</ele>
        <time>2023-09-02T14:48:51Z</time>
      </trkpt>
      <trkpt lat="45.57207" lon="2.61415">
        <ele>910.6</ele>
        <time>2023-09-02T14:49:01Z</time>
      </trkpt>
      <trkpt lat="45.57211" lon="2.61408">
        <ele>910.4</ele>
        <time>2023-09-02T14:49:10Z</time>
      </trkpt>
      <trkpt lat="45.57214" lon="2.61402">
        <ele>910.4</ele>
        <time>2023-09-02T14:49:13Z</time>
      </trkpt>
      <trkpt lat="45.57216" lon="2.61395">
        <ele>910.4</ele>
        <time>2023-09-02T14:49:17Z</time>
      </trkpt>
      <trkpt lat="45.57223" lon="2.61385">
        <ele>910.2</ele>
        <time>2023-09-02T14:49:35Z</time>
      </trkpt>
      <trkpt lat="45.57226" lon="2.61378">
        <ele>910</ele>
        <time>2023-09-02T14:49:41Z</time>
      </trkpt>
      <trkpt lat="45.57226" lon="2.61374">
        <ele>909.8</ele>
        <time>2023-09-02T14:49:44Z</time>
      </trkpt>
      <trkpt lat="45.5723" lon="2.61367">
        <ele>909.6</ele>
        <time>2023-09-02T14:49:48Z</time>
      </trkpt>
      <trkpt lat="45.57233" lon="2.61357">
        <ele>909.6</ele>
        <time>2023-09-02T14:49:54Z</time>
      </trkpt>
      <trkpt lat="45.57241" lon="2.61336">
        <ele>908.6</ele>
        <time>2023-09-02T14:50:05Z</time>
      </trkpt>
      <trkpt lat="45.57244" lon="2.61325">
        <ele>908</ele>
        <time>2023-09-02T14:50:14Z</time>
      </trkpt>
      <trkpt lat="45.57245" lon="2.61322">
        <ele>908</ele>
        <time>2023-09-02T14:50:18Z</time>
      </trkpt>
      <trkpt lat="45.57244" lon="2.61318">
        <ele>907.8</ele>
        <time>2023-09-02T14:50:23Z</time>
      </trkpt>
      <trkpt lat="45.57248" lon="2.61308">
        <ele>906.8</ele>
        <time>2023-09-02T14:50:52Z</time>
      </trkpt>
      <trkpt lat="45.57251" lon="2.61305">
        <ele>907.2</ele>
        <time>2023-09-02T14:51:40Z</time>
      </trkpt>
      <trkpt lat="45.57258" lon="2.61281">
        <ele>907.2</ele>
        <time>2023-09-02T14:52:00Z</time>
      </trkpt>
      <trkpt lat="45.5726" lon="2.61271">
        <ele>907</ele>
        <time>2023-09-02T14:52:09Z</time>
      </trkpt>
      <trkpt lat="45.57262" lon="2.61266">
        <ele>906.8</ele>
        <time>2023-09-02T14:52:13Z</time>
      </trkpt>
      <trkpt lat="45.57269" lon="2.61244">
        <ele>906.4</ele>
        <time>2023-09-02T14:52:28Z</time>
      </trkpt>
      <trkpt lat="45.57273" lon="2.61227">
        <ele>906</ele>
        <time>2023-09-02T14:52:39Z</time>
      </trkpt>
      <trkpt lat="45.57277" lon="2.61214">
        <ele>905.8</ele>
        <time>2023-09-02T14:52:47Z</time>
      </trkpt>
      <trkpt lat="45.57278" lon="2.6121">
        <ele>905.8</ele>
        <time>2023-09-02T14:52:49Z</time>
      </trkpt>
      <trkpt lat="45.5728" lon="2.61202">
        <ele>905.4</ele>
        <time>2023-09-02T14:52:53Z</time>
      </trkpt>
      <trkpt lat="45.57285" lon="2.6119">
        <ele>905.2</ele>
        <time>2023-09-02T14:52:59Z</time>
      </trkpt>
      <trkpt lat="45.57288" lon="2.61183">
        <ele>905</ele>
        <time>2023-09-02T14:53:03Z</time>
      </trkpt>
      <trkpt lat="45.57295" lon="2.61167">
        <ele>904.6</ele>
        <time>2023-09-02T14:53:14Z</time>
      </trkpt>
      <trkpt lat="45.573" lon="2.61157">
        <ele>904.2</ele>
        <time>2023-09-02T14:53:22Z</time>
      </trkpt>
      <trkpt lat="45.57302" lon="2.61149">
        <ele>904</ele>
        <time>2023-09-02T14:53:28Z</time>
      </trkpt>
      <trkpt lat="45.57306" lon="2.61123">
        <ele>903.4</ele>
        <time>2023-09-02T14:53:43Z</time>
      </trkpt>
      <trkpt lat="45.57306" lon="2.61119">
        <ele>903.2</ele>
        <time>2023-09-02T14:53:45Z</time>
      </trkpt>
      <trkpt lat="45.57306" lon="2.61107">
        <ele>902.8</ele>
        <time>2023-09-02T14:53:51Z</time>
      </trkpt>
      <trkpt lat="45.57306" lon="2.61101">
        <ele>902.8</ele>
        <time>2023-09-02T14:53:54Z</time>
      </trkpt>
      <trkpt lat="45.57302" lon="2.61075">
        <ele>902.2</ele>
        <time>2023-09-02T14:54:10Z</time>
      </trkpt>
      <trkpt lat="45.57301" lon="2.61055">
        <ele>901.8</ele>
        <time>2023-09-02T14:54:19Z</time>
      </trkpt>
      <trkpt lat="45.57299" lon="2.61051">
        <ele>901.8</ele>
        <time>2023-09-02T14:54:22Z</time>
      </trkpt>
      <trkpt lat="45.57295" lon="2.6103">
        <ele>901</ele>
        <time>2023-09-02T14:54:34Z</time>
      </trkpt>
      <trkpt lat="45.57295" lon="2.6102">
        <ele>900.8</ele>
        <time>2023-09-02T14:54:38Z</time>
      </trkpt>
      <trkpt lat="45.57293" lon="2.61007">
        <ele>900.6</ele>
        <time>2023-09-02T14:54:45Z</time>
      </trkpt>
      <trkpt lat="45.57293" lon="2.60998">
        <ele>900</ele>
        <time>2023-09-02T14:54:57Z</time>
      </trkpt>
      <trkpt lat="45.57292" lon="2.60996">
        <ele>900</ele>
        <time>2023-09-02T14:55:09Z</time>
      </trkpt>
      <trkpt lat="45.57291" lon="2.6099">
        <ele>900</ele>
        <time>2023-09-02T14:55:12Z</time>
      </trkpt>
      <trkpt lat="45.57292" lon="2.6098">
        <ele>899.8</ele>
        <time>2023-09-02T14:55:28Z</time>
      </trkpt>
      <trkpt lat="45.57301" lon="2.60976">
        <ele>899.2</ele>
        <time>2023-09-02T14:55:44Z</time>
      </trkpt>
      <trkpt lat="45.57316" lon="2.6097">
        <ele>897.8</ele>
        <time>2023-09-02T14:56:01Z</time>
      </trkpt>
      <trkpt lat="45.57329" lon="2.60962">
        <ele>896.2</ele>
        <time>2023-09-02T14:56:15Z</time>
      </trkpt>
      <trkpt lat="45.57334" lon="2.6096">
        <ele>895.8</ele>
        <time>2023-09-02T14:56:19Z</time>
      </trkpt>
      <trkpt lat="45.57348" lon="2.6096">
        <ele>894.2</ele>
        <time>2023-09-02T14:56:32Z</time>
      </trkpt>
      <trkpt lat="45.57355" lon="2.60959">
        <ele>893</ele>
        <time>2023-09-02T14:56:40Z</time>
      </trkpt>
      <trkpt lat="45.57359" lon="2.60959">
        <ele>891.6</ele>
        <time>2023-09-02T14:56:44Z</time>
      </trkpt>
      <trkpt lat="45.57364" lon="2.60957">
        <ele>890.6</ele>
        <time>2023-09-02T14:56:49Z</time>
      </trkpt>
      <trkpt lat="45.57368" lon="2.60955">
        <ele>889.8</ele>
        <time>2023-09-02T14:56:53Z</time>
      </trkpt>
      <trkpt lat="45.5737" lon="2.60954">
        <ele>889.4</ele>
        <time>2023-09-02T14:56:55Z</time>
      </trkpt>
      <trkpt lat="45.57388" lon="2.60946">
        <ele>886.2</ele>
        <time>2023-09-02T14:57:11Z</time>
      </trkpt>
      <trkpt lat="45.57396" lon="2.60942">
        <ele>884.8</ele>
        <time>2023-09-02T14:57:21Z</time>
      </trkpt>
      <trkpt lat="45.57409" lon="2.60942">
        <ele>882.8</ele>
        <time>2023-09-02T14:57:37Z</time>
      </trkpt>
      <trkpt lat="45.57418" lon="2.60938">
        <ele>882</ele>
        <time>2023-09-02T14:57:45Z</time>
      </trkpt>
      <trkpt lat="45.57426" lon="2.60936">
        <ele>881</ele>
        <time>2023-09-02T14:57:51Z</time>
      </trkpt>
      <trkpt lat="45.57429" lon="2.60935">
        <ele>880.6</ele>
        <time>2023-09-02T14:57:53Z</time>
      </trkpt>
      <trkpt lat="45.57439" lon="2.6093">
        <ele>878.2</ele>
        <time>2023-09-02T14:58:05Z</time>
      </trkpt>
      <trkpt lat="45.57443" lon="2.60925">
        <ele>877.4</ele>
        <time>2023-09-02T14:58:12Z</time>
      </trkpt>
      <trkpt lat="45.57451" lon="2.60907">
        <ele>876</ele>
        <time>2023-09-02T14:58:23Z</time>
      </trkpt>
      <trkpt lat="45.57451" lon="2.60901">
        <ele>875.8</ele>
        <time>2023-09-02T14:58:26Z</time>
      </trkpt>
      <trkpt lat="45.57454" lon="2.60895">
        <ele>875.4</ele>
        <time>2023-09-02T14:58:30Z</time>
      </trkpt>
      <trkpt lat="45.57462" lon="2.6088">
        <ele>874</ele>
        <time>2023-09-02T14:58:44Z</time>
      </trkpt>
      <trkpt lat="45.57467" lon="2.60873">
        <ele>872</ele>
        <time>2023-09-02T14:59:03Z</time>
      </trkpt>
      <trkpt lat="45.57475" lon="2.60865">
        <ele>871.4</ele>
        <time>2023-09-02T14:59:19Z</time>
      </trkpt>
      <trkpt lat="45.57482" lon="2.60853">
        <ele>869.4</ele>
        <time>2023-09-02T14:59:32Z</time>
      </trkpt>
      <trkpt lat="45.57495" lon="2.60837">
        <ele>866.8</ele>
        <time>2023-09-02T14:59:47Z</time>
      </trkpt>
      <trkpt lat="45.57508" lon="2.60816">
        <ele>863.6</ele>
        <time>2023-09-02T15:00:06Z</time>
      </trkpt>
      <trkpt lat="45.5752" lon="2.60804">
        <ele>861</ele>
        <time>2023-09-02T15:00:22Z</time>
      </trkpt>
      <trkpt lat="45.57527" lon="2.60799">
        <ele>860.2</ele>
        <time>2023-09-02T15:00:28Z</time>
      </trkpt>
      <trkpt lat="45.57535" lon="2.60789">
        <ele>858.4</ele>
        <time>2023-09-02T15:00:40Z</time>
      </trkpt>
      <trkpt lat="45.57539" lon="2.60781">
        <ele>857.4</ele>
        <time>2023-09-02T15:00:45Z</time>
      </trkpt>
      <trkpt lat="45.57542" lon="2.60769">
        <ele>856.6</ele>
        <time>2023-09-02T15:00:52Z</time>
      </trkpt>
      <trkpt lat="45.57549" lon="2.60754">
        <ele>856.2</ele>
        <time>2023-09-02T15:01:04Z</time>
      </trkpt>
      <trkpt lat="45.57553" lon="2.60731">
        <ele>853</ele>
        <time>2023-09-02T15:01:29Z</time>
      </trkpt>
      <trkpt lat="45.57554" lon="2.60726">
        <ele>852.4</ele>
        <time>2023-09-02T15:01:32Z</time>
      </trkpt>
      <trkpt lat="45.57562" lon="2.60714">
        <ele>849.8</ele>
        <time>2023-09-02T15:01:45Z</time>
      </trkpt>
      <trkpt lat="45.57576" lon="2.60704">
        <ele>846.4</ele>
        <time>2023-09-02T15:02:01Z</time>
      </trkpt>
      <trkpt lat="45.57578" lon="2.60689">
        <ele>844.4</ele>
        <time>2023-09-02T15:02:12Z</time>
      </trkpt>
      <trkpt lat="45.57575" lon="2.60675">
        <ele>841.6</ele>
        <time>2023-09-02T15:02:27Z</time>
      </trkpt>
      <trkpt lat="45.57563" lon="2.60671">
        <ele>839.6</ele>
        <time>2023-09-02T15:02:41Z</time>
      </trkpt>
      <trkpt lat="45.57558" lon="2.60664">
        <ele>838.2</ele>
        <time>2023-09-02T15:02:50Z</time>
      </trkpt>
      <trkpt lat="45.57561" lon="2.60644">
        <ele>836.2</ele>
        <time>2023-09-02T15:03:09Z</time>
      </trkpt>
      <trkpt lat="45.57563" lon="2.60639">
        <ele>835.8</ele>
        <time>2023-09-02T15:03:12Z</time>
      </trkpt>
      <trkpt lat="45.57567" lon="2.60619">
        <ele>833.8</ele>
        <time>2023-09-02T15:03:26Z</time>
      </trkpt>
      <trkpt lat="45.57569" lon="2.6061">
        <ele>833</ele>
        <time>2023-09-02T15:03:51Z</time>
      </trkpt>
      <trkpt lat="45.57583" lon="2.60607">
        <ele>832.6</ele>
        <time>2023-09-02T15:04:03Z</time>
      </trkpt>
      <trkpt lat="45.57599" lon="2.6061">
        <ele>832.6</ele>
        <time>2023-09-02T15:04:13Z</time>
      </trkpt>
      <trkpt lat="45.57602" lon="2.60614">
        <ele>832.6</ele>
        <time>2023-09-02T15:04:15Z</time>
      </trkpt>
      <trkpt lat="45.57611" lon="2.60611">
        <ele>832.8</ele>
        <time>2023-09-02T15:04:26Z</time>
      </trkpt>
      <trkpt lat="45.57626" lon="2.60592">
        <ele>834.4</ele>
        <time>2023-09-02T15:04:42Z</time>
      </trkpt>
      <trkpt lat="45.57638" lon="2.60569">
        <ele>837.2</ele>
        <time>2023-09-02T15:05:04Z</time>
      </trkpt>
      <trkpt lat="45.57648" lon="2.60553">
        <ele>839.6</ele>
        <time>2023-09-02T15:05:26Z</time>
      </trkpt>
      <trkpt lat="45.57657" lon="2.60539">
        <ele>842.8</ele>
        <time>2023-09-02T15:05:44Z</time>
      </trkpt>
      <trkpt lat="45.57661" lon="2.60528">
        <ele>845.2</ele>
        <time>2023-09-02T15:06:00Z</time>
      </trkpt>
      <trkpt lat="45.57666" lon="2.60512">
        <ele>847.2</ele>
        <time>2023-09-02T15:06:14Z</time>
      </trkpt>
      <trkpt lat="45.5767" lon="2.60504">
        <ele>849.2</ele>
        <time>2023-09-02T15:06:26Z</time>
      </trkpt>
      <trkpt lat="45.57678" lon="2.60515">
        <ele>851.4</ele>
        <time>2023-09-02T15:06:43Z</time>
      </trkpt>
      <trkpt lat="45.57682" lon="2.6052">
        <ele>852.8</ele>
        <time>2023-09-02T15:06:52Z</time>
      </trkpt>
      <trkpt lat="45.57691" lon="2.60529">
        <ele>854.8</ele>
        <time>2023-09-02T15:07:05Z</time>
      </trkpt>
      <trkpt lat="45.57704" lon="2.60543">
        <ele>858</ele>
        <time>2023-09-02T15:07:26Z</time>
      </trkpt>
      <trkpt lat="45.57718" lon="2.60568">
        <ele>860.8</ele>
        <time>2023-09-02T15:07:52Z</time>
      </trkpt>
      <trkpt lat="45.57718" lon="2.60568">
        <ele>861.8</ele>
        <time>2023-09-02T15:08:02Z</time>
      </trkpt>
      <trkpt lat="45.57723" lon="2.60565">
        <ele>862</ele>
        <time>2023-09-02T15:08:09Z</time>
      </trkpt>
      <trkpt lat="45.57731" lon="2.60564">
        <ele>862</ele>
        <time>2023-09-02T15:08:15Z</time>
      </trkpt>
      <trkpt lat="45.57735" lon="2.60567">
        <ele>862.2</ele>
        <time>2023-09-02T15:08:19Z</time>
      </trkpt>
      <trkpt lat="45.57734" lon="2.60577">
        <ele>862.2</ele>
        <time>2023-09-02T15:08:23Z</time>
      </trkpt>
      <trkpt lat="45.57732" lon="2.60594">
        <ele>863</ele>
        <time>2023-09-02T15:08:34Z</time>
      </trkpt>
      <trkpt lat="45.57734" lon="2.60613">
        <ele>863.6</ele>
        <time>2023-09-02T15:08:51Z</time>
      </trkpt>
      <trkpt lat="45.57735" lon="2.60614">
        <ele>863.6</ele>
        <time>2023-09-02T15:08:53Z</time>
      </trkpt>
      <trkpt lat="45.57749" lon="2.60627">
        <ele>865</ele>
        <time>2023-09-02T15:09:16Z</time>
      </trkpt>
      <trkpt lat="45.57753" lon="2.6064">
        <ele>865.6</ele>
        <time>2023-09-02T15:09:32Z</time>
      </trkpt>
      <trkpt lat="45.57758" lon="2.60655">
        <ele>866.6</ele>
        <time>2023-09-02T15:09:44Z</time>
      </trkpt>
      <trkpt lat="45.57759" lon="2.60666">
        <ele>867.6</ele>
        <time>2023-09-02T15:09:53Z</time>
      </trkpt>
      <trkpt lat="45.57766" lon="2.60689">
        <ele>869.2</ele>
        <time>2023-09-02T15:10:16Z</time>
      </trkpt>
      <trkpt lat="45.5777" lon="2.60682">
        <ele>871.2</ele>
        <time>2023-09-02T15:10:27Z</time>
      </trkpt>
      <trkpt lat="45.57779" lon="2.60658">
        <ele>874.4</ele>
        <time>2023-09-02T15:10:50Z</time>
      </trkpt>
      <trkpt lat="45.57797" lon="2.60649">
        <ele>877.6</ele>
        <time>2023-09-02T15:11:11Z</time>
      </trkpt>
      <trkpt lat="45.57799" lon="2.6064">
        <ele>879</ele>
        <time>2023-09-02T15:11:36Z</time>
      </trkpt>
      <trkpt lat="45.57795" lon="2.60641">
        <ele>879</ele>
        <time>2023-09-02T15:11:39Z</time>
      </trkpt>
      <trkpt lat="45.57795" lon="2.60649">
        <ele>879.2</ele>
        <time>2023-09-02T15:12:11Z</time>
      </trkpt>
      <trkpt lat="45.57807" lon="2.60644">
        <ele>879.2</ele>
        <time>2023-09-02T15:12:20Z</time>
      </trkpt>
      <trkpt lat="45.57809" lon="2.60646">
        <ele>879.4</ele>
        <time>2023-09-02T15:12:25Z</time>
      </trkpt>
      <trkpt lat="45.57819" lon="2.60633">
        <ele>881</ele>
        <time>2023-09-02T15:12:42Z</time>
      </trkpt>
      <trkpt lat="45.57828" lon="2.60627">
        <ele>883</ele>
        <time>2023-09-02T15:13:00Z</time>
      </trkpt>
      <trkpt lat="45.57832" lon="2.60639">
        <ele>884.6</ele>
        <time>2023-09-02T15:13:24Z</time>
      </trkpt>
      <trkpt lat="45.57841" lon="2.60639">
        <ele>885.8</ele>
        <time>2023-09-02T15:13:33Z</time>
      </trkpt>
      <trkpt lat="45.57855" lon="2.60649">
        <ele>887.4</ele>
        <time>2023-09-02T15:13:52Z</time>
      </trkpt>
      <trkpt lat="45.57874" lon="2.60657">
        <ele>888.4</ele>
        <time>2023-09-02T15:14:05Z</time>
      </trkpt>
      <trkpt lat="45.57881" lon="2.60678">
        <ele>889.4</ele>
        <time>2023-09-02T15:14:21Z</time>
      </trkpt>
      <trkpt lat="45.57883" lon="2.60681">
        <ele>889.6</ele>
        <time>2023-09-02T15:14:24Z</time>
      </trkpt>
      <trkpt lat="45.57887" lon="2.6069">
        <ele>890.4</ele>
        <time>2023-09-02T15:14:33Z</time>
      </trkpt>
      <trkpt lat="45.57897" lon="2.60712">
        <ele>890.6</ele>
        <time>2023-09-02T15:14:47Z</time>
      </trkpt>
      <trkpt lat="45.57898" lon="2.60716">
        <ele>890.8</ele>
        <time>2023-09-02T15:14:50Z</time>
      </trkpt>
      <trkpt lat="45.57911" lon="2.60741">
        <ele>891</ele>
        <time>2023-09-02T15:15:07Z</time>
      </trkpt>
      <trkpt lat="45.57912" lon="2.60745">
        <ele>891</ele>
        <time>2023-09-02T15:15:09Z</time>
      </trkpt>
      <trkpt lat="45.57919" lon="2.60765">
        <ele>891.8</ele>
        <time>2023-09-02T15:15:24Z</time>
      </trkpt>
      <trkpt lat="45.57925" lon="2.60782">
        <ele>891.8</ele>
        <time>2023-09-02T15:15:35Z</time>
      </trkpt>
      <trkpt lat="45.57929" lon="2.60785">
        <ele>892</ele>
        <time>2023-09-02T15:15:39Z</time>
      </trkpt>
      <trkpt lat="45.5793" lon="2.60787">
        <ele>892</ele>
        <time>2023-09-02T15:15:44Z</time>
      </trkpt>
      <trkpt lat="45.57927" lon="2.60798">
        <ele>892.2</ele>
        <time>2023-09-02T15:16:01Z</time>
      </trkpt>
      <trkpt lat="45.57933" lon="2.60817">
        <ele>892.8</ele>
        <time>2023-09-02T15:16:16Z</time>
      </trkpt>
      <trkpt lat="45.57935" lon="2.6082">
        <ele>892.8</ele>
        <time>2023-09-02T15:16:18Z</time>
      </trkpt>
      <trkpt lat="45.57939" lon="2.60826">
        <ele>893</ele>
        <time>2023-09-02T15:16:23Z</time>
      </trkpt>
      <trkpt lat="45.57941" lon="2.6083">
        <ele>893.2</ele>
        <time>2023-09-02T15:16:26Z</time>
      </trkpt>
      <trkpt lat="45.57943" lon="2.60837">
        <ele>893.6</ele>
        <time>2023-09-02T15:16:31Z</time>
      </trkpt>
      <trkpt lat="45.57946" lon="2.60846">
        <ele>893.8</ele>
        <time>2023-09-02T15:16:37Z</time>
      </trkpt>
      <trkpt lat="45.57953" lon="2.60859">
        <ele>894</ele>
        <time>2023-09-02T15:16:44Z</time>
      </trkpt>
      <trkpt lat="45.57958" lon="2.60884">
        <ele>894.8</ele>
        <time>2023-09-02T15:17:00Z</time>
      </trkpt>
      <trkpt lat="45.57959" lon="2.60891">
        <ele>894.8</ele>
        <time>2023-09-02T15:17:05Z</time>
      </trkpt>
      <trkpt lat="45.5796" lon="2.60894">
        <ele>894.8</ele>
        <time>2023-09-02T15:17:07Z</time>
      </trkpt>
      <trkpt lat="45.57962" lon="2.609">
        <ele>894.8</ele>
        <time>2023-09-02T15:17:11Z</time>
      </trkpt>
      <trkpt lat="45.57963" lon="2.60911">
        <ele>895.2</ele>
        <time>2023-09-02T15:17:16Z</time>
      </trkpt>
      <trkpt lat="45.57963" lon="2.60925">
        <ele>895.2</ele>
        <time>2023-09-02T15:17:24Z</time>
      </trkpt>
      <trkpt lat="45.57963" lon="2.60935">
        <ele>895.4</ele>
        <time>2023-09-02T15:17:30Z</time>
      </trkpt>
      <trkpt lat="45.57963" lon="2.6094">
        <ele>895.4</ele>
        <time>2023-09-02T15:17:33Z</time>
      </trkpt>
      <trkpt lat="45.57964" lon="2.60945">
        <ele>895.2</ele>
        <time>2023-09-02T15:17:57Z</time>
      </trkpt>
      <trkpt lat="45.57964" lon="2.60948">
        <ele>895.2</ele>
        <time>2023-09-02T15:18:00Z</time>
      </trkpt>
      <trkpt lat="45.57961" lon="2.60964">
        <ele>895</ele>
        <time>2023-09-02T15:18:22Z</time>
      </trkpt>
      <trkpt lat="45.5796" lon="2.60966">
        <ele>895</ele>
        <time>2023-09-02T15:18:25Z</time>
      </trkpt>
      <trkpt lat="45.57961" lon="2.60976">
        <ele>895.2</ele>
        <time>2023-09-02T15:18:29Z</time>
      </trkpt>
      <trkpt lat="45.57961" lon="2.60982">
        <ele>895.2</ele>
        <time>2023-09-02T15:18:31Z</time>
      </trkpt>
      <trkpt lat="45.57962" lon="2.60991">
        <ele>895.2</ele>
        <time>2023-09-02T15:18:36Z</time>
      </trkpt>
      <trkpt lat="45.57962" lon="2.60999">
        <ele>895.2</ele>
        <time>2023-09-02T15:18:41Z</time>
      </trkpt>
      <trkpt lat="45.57961" lon="2.61025">
        <ele>895.2</ele>
        <time>2023-09-02T15:18:58Z</time>
      </trkpt>
      <trkpt lat="45.57961" lon="2.61032">
        <ele>895.2</ele>
        <time>2023-09-02T15:19:01Z</time>
      </trkpt>
      <trkpt lat="45.57966" lon="2.61062">
        <ele>895.6</ele>
        <time>2023-09-02T15:19:14Z</time>
      </trkpt>
      <trkpt lat="45.57967" lon="2.61065">
        <ele>895.6</ele>
        <time>2023-09-02T15:19:16Z</time>
      </trkpt>
      <trkpt lat="45.5797" lon="2.61075">
        <ele>895.6</ele>
        <time>2023-09-02T15:19:23Z</time>
      </trkpt>
      <trkpt lat="45.57976" lon="2.61077">
        <ele>895.6</ele>
        <time>2023-09-02T15:19:27Z</time>
      </trkpt>
      <trkpt lat="45.57981" lon="2.61078">
        <ele>896.2</ele>
        <time>2023-09-02T15:19:32Z</time>
      </trkpt>
      <trkpt lat="45.57998" lon="2.61076">
        <ele>897.8</ele>
        <time>2023-09-02T15:19:50Z</time>
      </trkpt>
      <trkpt lat="45.58014" lon="2.61075">
        <ele>899.4</ele>
        <time>2023-09-02T15:20:06Z</time>
      </trkpt>
      <trkpt lat="45.58022" lon="2.61075">
        <ele>899.6</ele>
        <time>2023-09-02T15:20:12Z</time>
      </trkpt>
      <trkpt lat="45.58028" lon="2.61074">
        <ele>900.4</ele>
        <time>2023-09-02T15:20:20Z</time>
      </trkpt>
      <trkpt lat="45.5804" lon="2.61073">
        <ele>901.4</ele>
        <time>2023-09-02T15:20:33Z</time>
      </trkpt>
      <trkpt lat="45.5805" lon="2.61071">
        <ele>901.6</ele>
        <time>2023-09-02T15:20:42Z</time>
      </trkpt>
      <trkpt lat="45.58056" lon="2.6107">
        <ele>901.8</ele>
        <time>2023-09-02T15:20:49Z</time>
      </trkpt>
      <trkpt lat="45.58061" lon="2.61069">
        <ele>902</ele>
        <time>2023-09-02T15:20:53Z</time>
      </trkpt>
      <trkpt lat="45.58065" lon="2.61069">
        <ele>902</ele>
        <time>2023-09-02T15:20:57Z</time>
      </trkpt>
      <trkpt lat="45.58072" lon="2.61069">
        <ele>902</ele>
        <time>2023-09-02T15:21:04Z</time>
      </trkpt>
      <trkpt lat="45.58094" lon="2.61072">
        <ele>902</ele>
        <time>2023-09-02T15:21:19Z</time>
      </trkpt>
      <trkpt lat="45.58097" lon="2.61075">
        <ele>902</ele>
        <time>2023-09-02T15:21:44Z</time>
      </trkpt>
      <trkpt lat="45.58098" lon="2.61076">
        <ele>902</ele>
        <time>2023-09-02T15:21:45Z</time>
      </trkpt>
      <trkpt lat="45.5811" lon="2.61098">
        <ele>902</ele>
        <time>2023-09-02T15:21:59Z</time>
      </trkpt>
      <trkpt lat="45.58111" lon="2.61104">
        <ele>902.6</ele>
        <time>2023-09-02T15:22:10Z</time>
      </trkpt>
      <trkpt lat="45.58112" lon="2.61124">
        <ele>902.6</ele>
        <time>2023-09-02T15:22:35Z</time>
      </trkpt>
      <trkpt lat="45.58114" lon="2.6114">
        <ele>902.8</ele>
        <time>2023-09-02T15:22:45Z</time>
      </trkpt>
      <trkpt lat="45.5812" lon="2.61167">
        <ele>903.2</ele>
        <time>2023-09-02T15:23:06Z</time>
      </trkpt>
      <trkpt lat="45.5812" lon="2.61169">
        <ele>903.2</ele>
        <time>2023-09-02T15:23:07Z</time>
      </trkpt>
      <trkpt lat="45.58121" lon="2.61173">
        <ele>903.4</ele>
        <time>2023-09-02T15:23:10Z</time>
      </trkpt>
      <trkpt lat="45.58121" lon="2.61175">
        <ele>903.4</ele>
        <time>2023-09-02T15:23:11Z</time>
      </trkpt>
      <trkpt lat="45.58121" lon="2.6118">
        <ele>903.8</ele>
        <time>2023-09-02T15:23:14Z</time>
      </trkpt>
      <trkpt lat="45.58123" lon="2.6119">
        <ele>904.2</ele>
        <time>2023-09-02T15:23:22Z</time>
      </trkpt>
      <trkpt lat="45.58124" lon="2.61193">
        <ele>904.2</ele>
        <time>2023-09-02T15:23:24Z</time>
      </trkpt>
      <trkpt lat="45.58125" lon="2.61198">
        <ele>904.2</ele>
        <time>2023-09-02T15:23:28Z</time>
      </trkpt>
      <trkpt lat="45.58127" lon="2.61204">
        <ele>904.2</ele>
        <time>2023-09-02T15:23:32Z</time>
      </trkpt>
      <trkpt lat="45.58141" lon="2.61223">
        <ele>905.2</ele>
        <time>2023-09-02T15:23:46Z</time>
      </trkpt>
      <trkpt lat="45.58144" lon="2.61231">
        <ele>905.6</ele>
        <time>2023-09-02T15:23:52Z</time>
      </trkpt>
      <trkpt lat="45.58144" lon="2.61233">
        <ele>905.6</ele>
        <time>2023-09-02T15:23:53Z</time>
      </trkpt>
      <trkpt lat="45.58146" lon="2.61236">
        <ele>905.8</ele>
        <time>2023-09-02T15:23:55Z</time>
      </trkpt>
      <trkpt lat="45.58146" lon="2.61237">
        <ele>905.8</ele>
        <time>2023-09-02T15:23:56Z</time>
      </trkpt>
      <trkpt lat="45.58147" lon="2.6124">
        <ele>905.8</ele>
        <time>2023-09-02T15:23:58Z</time>
      </trkpt>
      <trkpt lat="45.58148" lon="2.61243">
        <ele>905.8</ele>
        <time>2023-09-02T15:24:00Z</time>
      </trkpt>
      <trkpt lat="45.5815" lon="2.61254">
        <ele>906.6</ele>
        <time>2023-09-02T15:24:09Z</time>
      </trkpt>
      <trkpt lat="45.58152" lon="2.61262">
        <ele>907</ele>
        <time>2023-09-02T15:24:14Z</time>
      </trkpt>
      <trkpt lat="45.58152" lon="2.61266">
        <ele>907</ele>
        <time>2023-09-02T15:24:17Z</time>
      </trkpt>
      <trkpt lat="45.58153" lon="2.61268">
        <ele>907.2</ele>
        <time>2023-09-02T15:24:18Z</time>
      </trkpt>
      <trkpt lat="45.58168" lon="2.61292">
        <ele>908.4</ele>
        <time>2023-09-02T15:24:39Z</time>
      </trkpt>
      <trkpt lat="45.5817" lon="2.61298">
        <ele>908.6</ele>
        <time>2023-09-02T15:24:43Z</time>
      </trkpt>
      <trkpt lat="45.58172" lon="2.61305">
        <ele>908.6</ele>
        <time>2023-09-02T15:24:47Z</time>
      </trkpt>
      <trkpt lat="45.58175" lon="2.61313">
        <ele>908.6</ele>
        <time>2023-09-02T15:24:53Z</time>
      </trkpt>
      <trkpt lat="45.58177" lon="2.61322">
        <ele>909</ele>
        <time>2023-09-02T15:24:59Z</time>
      </trkpt>
      <trkpt lat="45.58178" lon="2.61331">
        <ele>909.6</ele>
        <time>2023-09-02T15:25:05Z</time>
      </trkpt>
      <trkpt lat="45.58178" lon="2.61336">
        <ele>909.8</ele>
        <time>2023-09-02T15:25:09Z</time>
      </trkpt>
      <trkpt lat="45.58181" lon="2.61345">
        <ele>910</ele>
        <time>2023-09-02T15:25:15Z</time>
      </trkpt>
      <trkpt lat="45.58182" lon="2.61346">
        <ele>910</ele>
        <time>2023-09-02T15:25:16Z</time>
      </trkpt>
      <trkpt lat="45.58185" lon="2.61357">
        <ele>910.8</ele>
        <time>2023-09-02T15:25:23Z</time>
      </trkpt>
      <trkpt lat="45.58187" lon="2.61363">
        <ele>911.2</ele>
        <time>2023-09-02T15:25:27Z</time>
      </trkpt>
      <trkpt lat="45.58187" lon="2.61364">
        <ele>911.4</ele>
        <time>2023-09-02T15:25:28Z</time>
      </trkpt>
      <trkpt lat="45.58188" lon="2.61366">
        <ele>911.4</ele>
        <time>2023-09-02T15:25:29Z</time>
      </trkpt>
      <trkpt lat="45.58188" lon="2.61367">
        <ele>911.4</ele>
        <time>2023-09-02T15:25:30Z</time>
      </trkpt>
      <trkpt lat="45.58189" lon="2.61369">
        <ele>911.4</ele>
        <time>2023-09-02T15:25:31Z</time>
      </trkpt>
      <trkpt lat="45.58188" lon="2.6137">
        <ele>911.6</ele>
        <time>2023-09-02T15:25:32Z</time>
      </trkpt>
      <trkpt lat="45.58188" lon="2.61371">
        <ele>911.6</ele>
        <time>2023-09-02T15:25:33Z</time>
      </trkpt>
      <trkpt lat="45.58188" lon="2.61373">
        <ele>911.8</ele>
        <time>2023-09-02T15:25:34Z</time>
      </trkpt>
      <trkpt lat="45.58192" lon="2.61391">
        <ele>912.8</ele>
        <time>2023-09-02T15:25:45Z</time>
      </trkpt>
      <trkpt lat="45.58192" lon="2.61395">
        <ele>913</ele>
        <time>2023-09-02T15:25:47Z</time>
      </trkpt>
      <trkpt lat="45.58193" lon="2.61396">
        <ele>913</ele>
        <time>2023-09-02T15:25:48Z</time>
      </trkpt>
      <trkpt lat="45.58195" lon="2.61421">
        <ele>913.2</ele>
        <time>2023-09-02T15:26:02Z</time>
      </trkpt>
      <trkpt lat="45.58196" lon="2.61442">
        <ele>913.6</ele>
        <time>2023-09-02T15:26:15Z</time>
      </trkpt>
      <trkpt lat="45.58197" lon="2.61457">
        <ele>914</ele>
        <time>2023-09-02T15:26:24Z</time>
      </trkpt>
      <trkpt lat="45.58197" lon="2.61458">
        <ele>914</ele>
        <time>2023-09-02T15:26:25Z</time>
      </trkpt>
      <trkpt lat="45.58197" lon="2.6146">
        <ele>914</ele>
        <time>2023-09-02T15:26:26Z</time>
      </trkpt>
      <trkpt lat="45.58197" lon="2.61461">
        <ele>914</ele>
        <time>2023-09-02T15:26:27Z</time>
      </trkpt>
      <trkpt lat="45.58197" lon="2.61463">
        <ele>914</ele>
        <time>2023-09-02T15:26:28Z</time>
      </trkpt>
      <trkpt lat="45.58197" lon="2.61477">
        <ele>914.2</ele>
        <time>2023-09-02T15:26:36Z</time>
      </trkpt>
      <trkpt lat="45.58197" lon="2.61479">
        <ele>914.2</ele>
        <time>2023-09-02T15:26:37Z</time>
      </trkpt>
      <trkpt lat="45.58197" lon="2.61481">
        <ele>914.4</ele>
        <time>2023-09-02T15:26:38Z</time>
      </trkpt>
      <trkpt lat="45.58197" lon="2.61484">
        <ele>914.4</ele>
        <time>2023-09-02T15:26:39Z</time>
      </trkpt>
      <trkpt lat="45.58197" lon="2.61486">
        <ele>914.4</ele>
        <time>2023-09-02T15:26:40Z</time>
      </trkpt>
      <trkpt lat="45.58197" lon="2.61488">
        <ele>914.6</ele>
        <time>2023-09-02T15:26:41Z</time>
      </trkpt>
      <trkpt lat="45.58197" lon="2.61525">
        <ele>915.4</ele>
        <time>2023-09-02T15:26:59Z</time>
      </trkpt>
      <trkpt lat="45.58199" lon="2.61542">
        <ele>915.8</ele>
        <time>2023-09-02T15:27:07Z</time>
      </trkpt>
      <trkpt lat="45.58202" lon="2.61545">
        <ele>915.8</ele>
        <time>2023-09-02T15:27:10Z</time>
      </trkpt>
      <trkpt lat="45.58202" lon="2.61547">
        <ele>915.8</ele>
        <time>2023-09-02T15:27:11Z</time>
      </trkpt>
      <trkpt lat="45.58203" lon="2.61548">
        <ele>915.8</ele>
        <time>2023-09-02T15:27:12Z</time>
      </trkpt>
      <trkpt lat="45.58203" lon="2.6155">
        <ele>915.8</ele>
        <time>2023-09-02T15:27:13Z</time>
      </trkpt>
      <trkpt lat="45.58203" lon="2.61552">
        <ele>915.8</ele>
        <time>2023-09-02T15:27:14Z</time>
      </trkpt>
      <trkpt lat="45.58203" lon="2.61554">
        <ele>915.8</ele>
        <time>2023-09-02T15:27:15Z</time>
      </trkpt>
      <trkpt lat="45.58204" lon="2.61568">
        <ele>915.8</ele>
        <time>2023-09-02T15:27:23Z</time>
      </trkpt>
      <trkpt lat="45.58205" lon="2.61568">
        <ele>915.8</ele>
        <time>2023-09-02T15:27:24Z</time>
      </trkpt>
      <trkpt lat="45.58205" lon="2.6157">
        <ele>915.8</ele>
        <time>2023-09-02T15:27:25Z</time>
      </trkpt>
      <trkpt lat="45.58205" lon="2.61572">
        <ele>915.8</ele>
        <time>2023-09-02T15:27:26Z</time>
      </trkpt>
      <trkpt lat="45.58206" lon="2.61574">
        <ele>915.8</ele>
        <time>2023-09-02T15:27:27Z</time>
      </trkpt>
      <trkpt lat="45.58206" lon="2.61578">
        <ele>915.8</ele>
        <time>2023-09-02T15:27:29Z</time>
      </trkpt>
      <trkpt lat="45.58206" lon="2.61581">
        <ele>915.8</ele>
        <time>2023-09-02T15:27:30Z</time>
      </trkpt>
      <trkpt lat="45.58207" lon="2.61582">
        <ele>915.8</ele>
        <time>2023-09-02T15:27:31Z</time>
      </trkpt>
      <trkpt lat="45.58207" lon="2.61583">
        <ele>915.8</ele>
        <time>2023-09-02T15:27:32Z</time>
      </trkpt>
      <trkpt lat="45.58208" lon="2.61583">
        <ele>915.8</ele>
        <time>2023-09-02T15:27:33Z</time>
      </trkpt>
      <trkpt lat="45.58211" lon="2.6158">
        <ele>915.8</ele>
        <time>2023-09-02T15:27:34Z</time>
      </trkpt>
      <trkpt lat="45.58211" lon="2.61581">
        <ele>915.8</ele>
        <time>2023-09-02T15:27:35Z</time>
      </trkpt>
      <trkpt lat="45.58212" lon="2.61581">
        <ele>915.8</ele>
        <time>2023-09-02T15:27:36Z</time>
      </trkpt>
      <trkpt lat="45.58211" lon="2.61583">
        <ele>915.8</ele>
        <time>2023-09-02T15:27:37Z</time>
      </trkpt>
      <trkpt lat="45.58211" lon="2.61587">
        <ele>915.8</ele>
        <time>2023-09-02T15:27:38Z</time>
      </trkpt>
      <trkpt lat="45.58215" lon="2.61605">
        <ele>915.4</ele>
        <time>2023-09-02T15:27:49Z</time>
      </trkpt>
      <trkpt lat="45.58216" lon="2.61606">
        <ele>915.4</ele>
        <time>2023-09-02T15:27:50Z</time>
      </trkpt>
      <trkpt lat="45.58217" lon="2.61614">
        <ele>915.2</ele>
        <time>2023-09-02T15:27:54Z</time>
      </trkpt>
      <trkpt lat="45.58218" lon="2.61616">
        <ele>915.2</ele>
        <time>2023-09-02T15:27:55Z</time>
      </trkpt>
      <trkpt lat="45.58218" lon="2.61618">
        <ele>915.2</ele>
        <time>2023-09-02T15:27:56Z</time>
      </trkpt>
      <trkpt lat="45.58218" lon="2.61621">
        <ele>915.2</ele>
        <time>2023-09-02T15:27:57Z</time>
      </trkpt>
      <trkpt lat="45.58218" lon="2.61624">
        <ele>915.2</ele>
        <time>2023-09-02T15:27:58Z</time>
      </trkpt>
      <trkpt lat="45.58218" lon="2.61634">
        <ele>915</ele>
        <time>2023-09-02T15:28:02Z</time>
      </trkpt>
      <trkpt lat="45.58219" lon="2.61636">
        <ele>915</ele>
        <time>2023-09-02T15:28:03Z</time>
      </trkpt>
      <trkpt lat="45.58219" lon="2.61646">
        <ele>915</ele>
        <time>2023-09-02T15:28:07Z</time>
      </trkpt>
      <trkpt lat="45.58219" lon="2.61654">
        <ele>915</ele>
        <time>2023-09-02T15:28:11Z</time>
      </trkpt>
      <trkpt lat="45.58219" lon="2.61656">
        <ele>915</ele>
        <time>2023-09-02T15:28:12Z</time>
      </trkpt>
      <trkpt lat="45.58219" lon="2.61659">
        <ele>915</ele>
        <time>2023-09-02T15:28:13Z</time>
      </trkpt>
      <trkpt lat="45.58218" lon="2.61661">
        <ele>915</ele>
        <time>2023-09-02T15:28:14Z</time>
      </trkpt>
      <trkpt lat="45.58219" lon="2.61662">
        <ele>915</ele>
        <time>2023-09-02T15:28:15Z</time>
      </trkpt>
      <trkpt lat="45.58219" lon="2.61666">
        <ele>914.8</ele>
        <time>2023-09-02T15:28:18Z</time>
      </trkpt>
      <trkpt lat="45.58218" lon="2.61677">
        <ele>914.8</ele>
        <time>2023-09-02T15:28:23Z</time>
      </trkpt>
      <trkpt lat="45.58218" lon="2.61679">
        <ele>914.8</ele>
        <time>2023-09-02T15:28:24Z</time>
      </trkpt>
      <trkpt lat="45.58217" lon="2.61679">
        <ele>914.6</ele>
        <time>2023-09-02T15:28:25Z</time>
      </trkpt>
      <trkpt lat="45.58217" lon="2.61687">
        <ele>914.6</ele>
        <time>2023-09-02T15:28:29Z</time>
      </trkpt>
      <trkpt lat="45.58218" lon="2.61687">
        <ele>914.6</ele>
        <time>2023-09-02T15:28:30Z</time>
      </trkpt>
      <trkpt lat="45.58218" lon="2.6169">
        <ele>914.6</ele>
        <time>2023-09-02T15:28:31Z</time>
      </trkpt>
      <trkpt lat="45.58218" lon="2.61691">
        <ele>914.6</ele>
        <time>2023-09-02T15:28:32Z</time>
      </trkpt>
      <trkpt lat="45.58219" lon="2.61691">
        <ele>914.4</ele>
        <time>2023-09-02T15:28:33Z</time>
      </trkpt>
      <trkpt lat="45.58221" lon="2.61703">
        <ele>914.4</ele>
        <time>2023-09-02T15:28:40Z</time>
      </trkpt>
      <trkpt lat="45.58221" lon="2.61705">
        <ele>914.4</ele>
        <time>2023-09-02T15:28:41Z</time>
      </trkpt>
      <trkpt lat="45.58221" lon="2.61708">
        <ele>914.6</ele>
        <time>2023-09-02T15:28:42Z</time>
      </trkpt>
      <trkpt lat="45.58224" lon="2.61718">
        <ele>914.6</ele>
        <time>2023-09-02T15:28:47Z</time>
      </trkpt>
      <trkpt lat="45.58228" lon="2.61728">
        <ele>915</ele>
        <time>2023-09-02T15:28:53Z</time>
      </trkpt>
      <trkpt lat="45.58228" lon="2.61743">
        <ele>915</ele>
        <time>2023-09-02T15:28:59Z</time>
      </trkpt>
      <trkpt lat="45.58228" lon="2.61748">
        <ele>915</ele>
        <time>2023-09-02T15:29:01Z</time>
      </trkpt>
      <trkpt lat="45.58229" lon="2.61751">
        <ele>915</ele>
        <time>2023-09-02T15:29:02Z</time>
      </trkpt>
      <trkpt lat="45.58229" lon="2.61754">
        <ele>915</ele>
        <time>2023-09-02T15:29:03Z</time>
      </trkpt>
      <trkpt lat="45.58228" lon="2.61756">
        <ele>915</ele>
        <time>2023-09-02T15:29:04Z</time>
      </trkpt>
      <trkpt lat="45.58228" lon="2.61761">
        <ele>915</ele>
        <time>2023-09-02T15:29:06Z</time>
      </trkpt>
      <trkpt lat="45.58226" lon="2.61769">
        <ele>915.2</ele>
        <time>2023-09-02T15:29:09Z</time>
      </trkpt>
      <trkpt lat="45.58215" lon="2.61752">
        <ele>915.6</ele>
        <time>2023-09-02T15:29:23Z</time>
      </trkpt>
      <trkpt lat="45.5821" lon="2.61754">
        <ele>915.2</ele>
        <time>2023-09-02T15:29:37Z</time>
      </trkpt>
      <trkpt lat="45.58205" lon="2.6176">
        <ele>913.6</ele>
        <time>2023-09-02T15:29:53Z</time>
      </trkpt>
      <trkpt lat="45.58194" lon="2.61771">
        <ele>911.8</ele>
        <time>2023-09-02T15:30:08Z</time>
      </trkpt>
      <trkpt lat="45.58185" lon="2.61779">
        <ele>910.8</ele>
        <time>2023-09-02T15:30:19Z</time>
      </trkpt>
      <trkpt lat="45.58174" lon="2.61793">
        <ele>909.8</ele>
        <time>2023-09-02T15:30:31Z</time>
      </trkpt>
      <trkpt lat="45.58162" lon="2.61809">
        <ele>908.6</ele>
        <time>2023-09-02T15:30:47Z</time>
      </trkpt>
      <trkpt lat="45.58151" lon="2.61829">
        <ele>907.8</ele>
        <time>2023-09-02T15:31:01Z</time>
      </trkpt>
      <trkpt lat="45.58137" lon="2.61851">
        <ele>906.8</ele>
        <time>2023-09-02T15:31:19Z</time>
      </trkpt>
      <trkpt lat="45.58121" lon="2.61865">
        <ele>904</ele>
        <time>2023-09-02T15:31:35Z</time>
      </trkpt>
      <trkpt lat="45.58118" lon="2.61866">
        <ele>903.6</ele>
        <time>2023-09-02T15:31:38Z</time>
      </trkpt>
      <trkpt lat="45.58117" lon="2.61867">
        <ele>903.4</ele>
        <time>2023-09-02T15:31:39Z</time>
      </trkpt>
      <trkpt lat="45.58103" lon="2.6188">
        <ele>900.6</ele>
        <time>2023-09-02T15:31:54Z</time>
      </trkpt>
      <trkpt lat="45.58095" lon="2.61898">
        <ele>897.4</ele>
        <time>2023-09-02T15:32:09Z</time>
      </trkpt>
      <trkpt lat="45.58081" lon="2.61927">
        <ele>895.4</ele>
        <time>2023-09-02T15:32:33Z</time>
      </trkpt>
      <trkpt lat="45.58057" lon="2.61955">
        <ele>894.2</ele>
        <time>2023-09-02T15:32:56Z</time>
      </trkpt>
      <trkpt lat="45.5804" lon="2.61972">
        <ele>893.8</ele>
        <time>2023-09-02T15:33:11Z</time>
      </trkpt>
      <trkpt lat="45.58026" lon="2.61991">
        <ele>894</ele>
        <time>2023-09-02T15:33:28Z</time>
      </trkpt>
      <trkpt lat="45.58021" lon="2.62006">
        <ele>894.2</ele>
        <time>2023-09-02T15:33:38Z</time>
      </trkpt>
      <trkpt lat="45.5802" lon="2.62009">
        <ele>894</ele>
        <time>2023-09-02T15:33:54Z</time>
      </trkpt>
      <trkpt lat="45.58015" lon="2.62013">
        <ele>894</ele>
        <time>2023-09-02T15:34:09Z</time>
      </trkpt>
      <trkpt lat="45.58009" lon="2.62025">
        <ele>893.8</ele>
        <time>2023-09-02T15:34:25Z</time>
      </trkpt>
      <trkpt lat="45.58002" lon="2.62029">
        <ele>893.8</ele>
        <time>2023-09-02T15:34:48Z</time>
      </trkpt>
      <trkpt lat="45.58" lon="2.62034">
        <ele>893.6</ele>
        <time>2023-09-02T15:35:01Z</time>
      </trkpt>
      <trkpt lat="45.57982" lon="2.62059">
        <ele>894.2</ele>
        <time>2023-09-02T15:35:26Z</time>
      </trkpt>
      <trkpt lat="45.57982" lon="2.62058">
        <ele>894.2</ele>
        <time>2023-09-02T15:35:28Z</time>
      </trkpt>
      <trkpt lat="45.57976" lon="2.62065">
        <ele>894.4</ele>
        <time>2023-09-02T15:35:48Z</time>
      </trkpt>
      <trkpt lat="45.57974" lon="2.62068">
        <ele>894.6</ele>
        <time>2023-09-02T15:35:51Z</time>
      </trkpt>
      <trkpt lat="45.57972" lon="2.62071">
        <ele>894.8</ele>
        <time>2023-09-02T15:35:55Z</time>
      </trkpt>
      <trkpt lat="45.57967" lon="2.62078">
        <ele>895</ele>
        <time>2023-09-02T15:36:14Z</time>
      </trkpt>
      <trkpt lat="45.57959" lon="2.62088">
        <ele>895.2</ele>
        <time>2023-09-02T15:36:25Z</time>
      </trkpt>
      <trkpt lat="45.57941" lon="2.62107">
        <ele>895.4</ele>
        <time>2023-09-02T15:36:39Z</time>
      </trkpt>
      <trkpt lat="45.57916" lon="2.62123">
        <ele>894.2</ele>
        <time>2023-09-02T15:37:02Z</time>
      </trkpt>
      <trkpt lat="45.57897" lon="2.62125">
        <ele>893.2</ele>
        <time>2023-09-02T15:37:16Z</time>
      </trkpt>
      <trkpt lat="45.57878" lon="2.62135">
        <ele>891.4</ele>
        <time>2023-09-02T15:37:31Z</time>
      </trkpt>
      <trkpt lat="45.57875" lon="2.62138">
        <ele>891.2</ele>
        <time>2023-09-02T15:37:34Z</time>
      </trkpt>
      <trkpt lat="45.57874" lon="2.62147">
        <ele>891.4</ele>
        <time>2023-09-02T15:37:45Z</time>
      </trkpt>
      <trkpt lat="45.57874" lon="2.62147">
        <ele>891.6</ele>
        <time>2023-09-02T15:37:52Z</time>
      </trkpt>
      <trkpt lat="45.57868" lon="2.62145">
        <ele>891.8</ele>
        <time>2023-09-02T15:38:10Z</time>
      </trkpt>
      <trkpt lat="45.57863" lon="2.62155">
        <ele>892.4</ele>
        <time>2023-09-02T15:38:21Z</time>
      </trkpt>
      <trkpt lat="45.5786" lon="2.62142">
        <ele>891.4</ele>
        <time>2023-09-02T15:38:42Z</time>
      </trkpt>
      <trkpt lat="45.57851" lon="2.62138">
        <ele>891</ele>
        <time>2023-09-02T15:38:55Z</time>
      </trkpt>
      <trkpt lat="45.57844" lon="2.62141">
        <ele>890.6</ele>
        <time>2023-09-02T15:39:01Z</time>
      </trkpt>
      <trkpt lat="45.57815" lon="2.62145">
        <ele>889</ele>
        <time>2023-09-02T15:39:26Z</time>
      </trkpt>
      <trkpt lat="45.57799" lon="2.6214">
        <ele>888.8</ele>
        <time>2023-09-02T15:39:41Z</time>
      </trkpt>
      <trkpt lat="45.57775" lon="2.6214">
        <ele>886.6</ele>
        <time>2023-09-02T15:40:02Z</time>
      </trkpt>
      <trkpt lat="45.57769" lon="2.62125">
        <ele>885.8</ele>
        <time>2023-09-02T15:40:16Z</time>
      </trkpt>
      <trkpt lat="45.57749" lon="2.62102">
        <ele>882.6</ele>
        <time>2023-09-02T15:40:39Z</time>
      </trkpt>
      <trkpt lat="45.5774" lon="2.62094">
        <ele>881</ele>
        <time>2023-09-02T15:40:51Z</time>
      </trkpt>
      <trkpt lat="45.57737" lon="2.62093">
        <ele>880.6</ele>
        <time>2023-09-02T15:40:54Z</time>
      </trkpt>
      <trkpt lat="45.5771" lon="2.62084">
        <ele>877.4</ele>
        <time>2023-09-02T15:41:15Z</time>
      </trkpt>
      <trkpt lat="45.57697" lon="2.62089">
        <ele>876.8</ele>
        <time>2023-09-02T15:41:26Z</time>
      </trkpt>
      <trkpt lat="45.57687" lon="2.62096">
        <ele>876.4</ele>
        <time>2023-09-02T15:41:42Z</time>
      </trkpt>
      <trkpt lat="45.57688" lon="2.62103">
        <ele>876.4</ele>
        <time>2023-09-02T15:41:50Z</time>
      </trkpt>
      <trkpt lat="45.57695" lon="2.62109">
        <ele>877.2</ele>
        <time>2023-09-02T15:42:12Z</time>
      </trkpt>
      <trkpt lat="45.57703" lon="2.62124">
        <ele>878.2</ele>
        <time>2023-09-02T15:42:22Z</time>
      </trkpt>
      <trkpt lat="45.57706" lon="2.62147">
        <ele>879.8</ele>
        <time>2023-09-02T15:42:38Z</time>
      </trkpt>
      <trkpt lat="45.57699" lon="2.6217">
        <ele>883</ele>
        <time>2023-09-02T15:43:00Z</time>
      </trkpt>
      <trkpt lat="45.57694" lon="2.62198">
        <ele>885.2</ele>
        <time>2023-09-02T15:43:23Z</time>
      </trkpt>
      <trkpt lat="45.57689" lon="2.62223">
        <ele>884.4</ele>
        <time>2023-09-02T15:43:42Z</time>
      </trkpt>
      <trkpt lat="45.57687" lon="2.62227">
        <ele>883.8</ele>
        <time>2023-09-02T15:43:46Z</time>
      </trkpt>
      <trkpt lat="45.57663" lon="2.62251">
        <ele>882</ele>
        <time>2023-09-02T15:44:14Z</time>
      </trkpt>
      <trkpt lat="45.5766" lon="2.62255">
        <ele>882.8</ele>
        <time>2023-09-02T15:44:34Z</time>
      </trkpt>
      <trkpt lat="45.57665" lon="2.6225">
        <ele>882.2</ele>
        <time>2023-09-02T15:44:40Z</time>
      </trkpt>
      <trkpt lat="45.57686" lon="2.62221">
        <ele>882.6</ele>
        <time>2023-09-02T15:45:01Z</time>
      </trkpt>
      <trkpt lat="45.5769" lon="2.62206">
        <ele>883.4</ele>
        <time>2023-09-02T15:45:12Z</time>
      </trkpt>
      <trkpt lat="45.57696" lon="2.62204">
        <ele>883.8</ele>
        <time>2023-09-02T15:45:15Z</time>
      </trkpt>
      <trkpt lat="45.57711" lon="2.62217">
        <ele>886.2</ele>
        <time>2023-09-02T15:45:33Z</time>
      </trkpt>
      <trkpt lat="45.57739" lon="2.62231">
        <ele>887.6</ele>
        <time>2023-09-02T15:45:58Z</time>
      </trkpt>
      <trkpt lat="45.57759" lon="2.62226">
        <ele>889</ele>
        <time>2023-09-02T15:46:21Z</time>
      </trkpt>
      <trkpt lat="45.57767" lon="2.62229">
        <ele>889.6</ele>
        <time>2023-09-02T15:46:35Z</time>
      </trkpt>
      <trkpt lat="45.57782" lon="2.62236">
        <ele>890.8</ele>
        <time>2023-09-02T15:46:50Z</time>
      </trkpt>
      <trkpt lat="45.57784" lon="2.62235">
        <ele>891</ele>
        <time>2023-09-02T15:46:51Z</time>
      </trkpt>
      <trkpt lat="45.57787" lon="2.62233">
        <ele>891.4</ele>
        <time>2023-09-02T15:46:53Z</time>
      </trkpt>
      <trkpt lat="45.57793" lon="2.62231">
        <ele>891.6</ele>
        <time>2023-09-02T15:46:57Z</time>
      </trkpt>
      <trkpt lat="45.57795" lon="2.62228">
        <ele>891.8</ele>
        <time>2023-09-02T15:47:00Z</time>
      </trkpt>
      <trkpt lat="45.57809" lon="2.62216">
        <ele>893</ele>
        <time>2023-09-02T15:47:17Z</time>
      </trkpt>
      <trkpt lat="45.57805" lon="2.62216">
        <ele>893.6</ele>
        <time>2023-09-02T15:47:39Z</time>
      </trkpt>
      <trkpt lat="45.57821" lon="2.62223">
        <ele>893.8</ele>
        <time>2023-09-02T15:47:55Z</time>
      </trkpt>
      <trkpt lat="45.57836" lon="2.62237">
        <ele>895.6</ele>
        <time>2023-09-02T15:48:12Z</time>
      </trkpt>
      <trkpt lat="45.57848" lon="2.62244">
        <ele>896.8</ele>
        <time>2023-09-02T15:48:26Z</time>
      </trkpt>
      <trkpt lat="45.57857" lon="2.62251">
        <ele>898.2</ele>
        <time>2023-09-02T15:48:46Z</time>
      </trkpt>
      <trkpt lat="45.57874" lon="2.6226">
        <ele>897</ele>
        <time>2023-09-02T15:49:02Z</time>
      </trkpt>
      <trkpt lat="45.57881" lon="2.62261">
        <ele>897.2</ele>
        <time>2023-09-02T15:49:13Z</time>
      </trkpt>
      <trkpt lat="45.57897" lon="2.62266">
        <ele>898.4</ele>
        <time>2023-09-02T15:49:26Z</time>
      </trkpt>
      <trkpt lat="45.57901" lon="2.62268">
        <ele>898.8</ele>
        <time>2023-09-02T15:49:30Z</time>
      </trkpt>
      <trkpt lat="45.57908" lon="2.62273">
        <ele>899.8</ele>
        <time>2023-09-02T15:49:41Z</time>
      </trkpt>
      <trkpt lat="45.57923" lon="2.62288">
        <ele>901</ele>
        <time>2023-09-02T15:49:57Z</time>
      </trkpt>
      <trkpt lat="45.57937" lon="2.62307">
        <ele>902.4</ele>
        <time>2023-09-02T15:50:17Z</time>
      </trkpt>
      <trkpt lat="45.57951" lon="2.62333">
        <ele>904.6</ele>
        <time>2023-09-02T15:50:38Z</time>
      </trkpt>
      <trkpt lat="45.5796" lon="2.62349">
        <ele>904.8</ele>
        <time>2023-09-02T15:50:53Z</time>
      </trkpt>
      <trkpt lat="45.57966" lon="2.62361">
        <ele>905.6</ele>
        <time>2023-09-02T15:51:07Z</time>
      </trkpt>
      <trkpt lat="45.5797" lon="2.62365">
        <ele>905.6</ele>
        <time>2023-09-02T15:51:10Z</time>
      </trkpt>
      <trkpt lat="45.57979" lon="2.62374">
        <ele>905.6</ele>
        <time>2023-09-02T15:51:20Z</time>
      </trkpt>
      <trkpt lat="45.57981" lon="2.62376">
        <ele>905.8</ele>
        <time>2023-09-02T15:51:22Z</time>
      </trkpt>
      <trkpt lat="45.57983" lon="2.62379">
        <ele>905.8</ele>
        <time>2023-09-02T15:51:25Z</time>
      </trkpt>
      <trkpt lat="45.57988" lon="2.62384">
        <ele>906.4</ele>
        <time>2023-09-02T15:51:32Z</time>
      </trkpt>
      <trkpt lat="45.5799" lon="2.62386">
        <ele>906.6</ele>
        <time>2023-09-02T15:51:36Z</time>
      </trkpt>
      <trkpt lat="45.57993" lon="2.62393">
        <ele>906.8</ele>
        <time>2023-09-02T15:51:41Z</time>
      </trkpt>
      <trkpt lat="45.57998" lon="2.62402">
        <ele>907.2</ele>
        <time>2023-09-02T15:51:48Z</time>
      </trkpt>
      <trkpt lat="45.58001" lon="2.6241">
        <ele>907.2</ele>
        <time>2023-09-02T15:51:53Z</time>
      </trkpt>
      <trkpt lat="45.57999" lon="2.62414">
        <ele>907.4</ele>
        <time>2023-09-02T15:51:57Z</time>
      </trkpt>
      <trkpt lat="45.58003" lon="2.62431">
        <ele>907.6</ele>
        <time>2023-09-02T15:52:06Z</time>
      </trkpt>
      <trkpt lat="45.58023" lon="2.62457">
        <ele>907.8</ele>
        <time>2023-09-02T15:52:23Z</time>
      </trkpt>
      <trkpt lat="45.58021" lon="2.62479">
        <ele>908</ele>
        <time>2023-09-02T15:52:34Z</time>
      </trkpt>
      <trkpt lat="45.58023" lon="2.62489">
        <ele>908</ele>
        <time>2023-09-02T15:52:38Z</time>
      </trkpt>
      <trkpt lat="45.58027" lon="2.625">
        <ele>908.4</ele>
        <time>2023-09-02T15:52:47Z</time>
      </trkpt>
      <trkpt lat="45.58027" lon="2.62505">
        <ele>908.2</ele>
        <time>2023-09-02T15:52:50Z</time>
      </trkpt>
      <trkpt lat="45.5803" lon="2.62514">
        <ele>908</ele>
        <time>2023-09-02T15:52:57Z</time>
      </trkpt>
      <trkpt lat="45.58031" lon="2.62516">
        <ele>908</ele>
        <time>2023-09-02T15:52:59Z</time>
      </trkpt>
      <trkpt lat="45.58033" lon="2.62522">
        <ele>908.4</ele>
        <time>2023-09-02T15:53:08Z</time>
      </trkpt>
      <trkpt lat="45.58034" lon="2.62525">
        <ele>908.6</ele>
        <time>2023-09-02T15:53:10Z</time>
      </trkpt>
      <trkpt lat="45.58035" lon="2.62533">
        <ele>909</ele>
        <time>2023-09-02T15:53:16Z</time>
      </trkpt>
      <trkpt lat="45.58036" lon="2.62539">
        <ele>909</ele>
        <time>2023-09-02T15:53:20Z</time>
      </trkpt>
      <trkpt lat="45.58037" lon="2.62545">
        <ele>909.4</ele>
        <time>2023-09-02T15:53:26Z</time>
      </trkpt>
      <trkpt lat="45.58037" lon="2.62554">
        <ele>909.6</ele>
        <time>2023-09-02T15:53:31Z</time>
      </trkpt>
      <trkpt lat="45.58039" lon="2.62584">
        <ele>910</ele>
        <time>2023-09-02T15:53:46Z</time>
      </trkpt>
      <trkpt lat="45.58043" lon="2.62594">
        <ele>910.2</ele>
        <time>2023-09-02T15:53:53Z</time>
      </trkpt>
      <trkpt lat="45.58044" lon="2.626">
        <ele>910.4</ele>
        <time>2023-09-02T15:53:56Z</time>
      </trkpt>
      <trkpt lat="45.58043" lon="2.62603">
        <ele>910.6</ele>
        <time>2023-09-02T15:53:59Z</time>
      </trkpt>
      <trkpt lat="45.58044" lon="2.62616">
        <ele>911.4</ele>
        <time>2023-09-02T15:54:05Z</time>
      </trkpt>
      <trkpt lat="45.58049" lon="2.6266">
        <ele>911.4</ele>
        <time>2023-09-02T15:54:14Z</time>
      </trkpt>
      <trkpt lat="45.58049" lon="2.62665">
        <ele>911.4</ele>
        <time>2023-09-02T15:54:15Z</time>
      </trkpt>
      <trkpt lat="45.58049" lon="2.62668">
        <ele>911.4</ele>
        <time>2023-09-02T15:54:16Z</time>
      </trkpt>
      <trkpt lat="45.5805" lon="2.6267">
        <ele>911.4</ele>
        <time>2023-09-02T15:54:17Z</time>
      </trkpt>
      <trkpt lat="45.58051" lon="2.62672">
        <ele>911.4</ele>
        <time>2023-09-02T15:54:18Z</time>
      </trkpt>
      <trkpt lat="45.58052" lon="2.62674">
        <ele>911.4</ele>
        <time>2023-09-02T15:54:19Z</time>
      </trkpt>
      <trkpt lat="45.58052" lon="2.62681">
        <ele>911.6</ele>
        <time>2023-09-02T15:54:22Z</time>
      </trkpt>
      <trkpt lat="45.58051" lon="2.62686">
        <ele>911.6</ele>
        <time>2023-09-02T15:54:24Z</time>
      </trkpt>
      <trkpt lat="45.58051" lon="2.62689">
        <ele>911.6</ele>
        <time>2023-09-02T15:54:25Z</time>
      </trkpt>
      <trkpt lat="45.5805" lon="2.62692">
        <ele>911.6</ele>
        <time>2023-09-02T15:54:26Z</time>
      </trkpt>
      <trkpt lat="45.58049" lon="2.62699">
        <ele>912</ele>
        <time>2023-09-02T15:54:31Z</time>
      </trkpt>
      <trkpt lat="45.58049" lon="2.62697">
        <ele>912</ele>
        <time>2023-09-02T15:54:32Z</time>
      </trkpt>
      <trkpt lat="45.58046" lon="2.62695">
        <ele>912.2</ele>
        <time>2023-09-02T15:54:35Z</time>
      </trkpt>
      <trkpt lat="45.58044" lon="2.62694">
        <ele>912.2</ele>
        <time>2023-09-02T15:54:36Z</time>
      </trkpt>
      <trkpt lat="45.58042" lon="2.62694">
        <ele>912.2</ele>
        <time>2023-09-02T15:54:37Z</time>
      </trkpt>
      <trkpt lat="45.58036" lon="2.62697">
        <ele>912.8</ele>
        <time>2023-09-02T15:54:42Z</time>
      </trkpt>
      <trkpt lat="45.58035" lon="2.62697">
        <ele>912.8</ele>
        <time>2023-09-02T15:54:44Z</time>
      </trkpt>
      <trkpt lat="45.58034" lon="2.62696">
        <ele>912.8</ele>
        <time>2023-09-02T15:54:45Z</time>
      </trkpt>
      <trkpt lat="45.58033" lon="2.62697">
        <ele>912.8</ele>
        <time>2023-09-02T15:54:46Z</time>
      </trkpt>
      <trkpt lat="45.58032" lon="2.62699">
        <ele>913</ele>
        <time>2023-09-02T15:54:47Z</time>
      </trkpt>
      <trkpt lat="45.58031" lon="2.627">
        <ele>913</ele>
        <time>2023-09-02T15:54:48Z</time>
      </trkpt>
      <trkpt lat="45.58025" lon="2.62713">
        <ele>913.2</ele>
        <time>2023-09-02T15:55:01Z</time>
      </trkpt>
      <trkpt lat="45.58026" lon="2.62725">
        <ele>914.2</ele>
        <time>2023-09-02T15:55:18Z</time>
      </trkpt>
      <trkpt lat="45.58014" lon="2.62734">
        <ele>914.8</ele>
        <time>2023-09-02T15:55:32Z</time>
      </trkpt>
      <trkpt lat="45.57998" lon="2.62751">
        <ele>915</ele>
        <time>2023-09-02T15:55:49Z</time>
      </trkpt>
      <trkpt lat="45.57994" lon="2.62758">
        <ele>914.8</ele>
        <time>2023-09-02T15:55:55Z</time>
      </trkpt>
      <trkpt lat="45.57991" lon="2.62762">
        <ele>914.8</ele>
        <time>2023-09-02T15:55:59Z</time>
      </trkpt>
      <trkpt lat="45.57984" lon="2.6277">
        <ele>914.4</ele>
        <time>2023-09-02T15:56:09Z</time>
      </trkpt>
      <trkpt lat="45.57981" lon="2.62772">
        <ele>914.4</ele>
        <time>2023-09-02T15:56:13Z</time>
      </trkpt>
      <trkpt lat="45.57975" lon="2.6278">
        <ele>914.4</ele>
        <time>2023-09-02T15:56:23Z</time>
      </trkpt>
      <trkpt lat="45.5797" lon="2.62787">
        <ele>914.4</ele>
        <time>2023-09-02T15:56:29Z</time>
      </trkpt>
      <trkpt lat="45.57962" lon="2.62794">
        <ele>914.4</ele>
        <time>2023-09-02T15:56:36Z</time>
      </trkpt>
      <trkpt lat="45.57957" lon="2.628">
        <ele>914.4</ele>
        <time>2023-09-02T15:56:40Z</time>
      </trkpt>
      <trkpt lat="45.57953" lon="2.62803">
        <ele>914.4</ele>
        <time>2023-09-02T15:56:42Z</time>
      </trkpt>
      <trkpt lat="45.57945" lon="2.62811">
        <ele>914.4</ele>
        <time>2023-09-02T15:56:50Z</time>
      </trkpt>
      <trkpt lat="45.57943" lon="2.62815">
        <ele>914.4</ele>
        <time>2023-09-02T15:56:53Z</time>
      </trkpt>
      <trkpt lat="45.57934" lon="2.62826">
        <ele>914.4</ele>
        <time>2023-09-02T15:57:03Z</time>
      </trkpt>
      <trkpt lat="45.57924" lon="2.62832">
        <ele>914.2</ele>
        <time>2023-09-02T15:57:12Z</time>
      </trkpt>
      <trkpt lat="45.57909" lon="2.62852">
        <ele>913.6</ele>
        <time>2023-09-02T15:57:27Z</time>
      </trkpt>
      <trkpt lat="45.57902" lon="2.6286">
        <ele>913.6</ele>
        <time>2023-09-02T15:57:34Z</time>
      </trkpt>
      <trkpt lat="45.57898" lon="2.62866">
        <ele>913.4</ele>
        <time>2023-09-02T15:57:38Z</time>
      </trkpt>
      <trkpt lat="45.57881" lon="2.62889">
        <ele>912.4</ele>
        <time>2023-09-02T15:57:56Z</time>
      </trkpt>
      <trkpt lat="45.57865" lon="2.62911">
        <ele>911.6</ele>
        <time>2023-09-02T15:58:14Z</time>
      </trkpt>
      <trkpt lat="45.57852" lon="2.62939">
        <ele>910.6</ele>
        <time>2023-09-02T15:58:33Z</time>
      </trkpt>
      <trkpt lat="45.5785" lon="2.62948">
        <ele>910</ele>
        <time>2023-09-02T15:58:40Z</time>
      </trkpt>
      <trkpt lat="45.57842" lon="2.62958">
        <ele>909</ele>
        <time>2023-09-02T15:58:49Z</time>
      </trkpt>
      <trkpt lat="45.57837" lon="2.62977">
        <ele>908.2</ele>
        <time>2023-09-02T15:59:02Z</time>
      </trkpt>
      <trkpt lat="45.57831" lon="2.62991">
        <ele>907.2</ele>
        <time>2023-09-02T15:59:11Z</time>
      </trkpt>
      <trkpt lat="45.57825" lon="2.62997">
        <ele>907.2</ele>
        <time>2023-09-02T15:59:16Z</time>
      </trkpt>
      <trkpt lat="45.57815" lon="2.63019">
        <ele>907</ele>
        <time>2023-09-02T15:59:30Z</time>
      </trkpt>
      <trkpt lat="45.57815" lon="2.6303">
        <ele>906.8</ele>
        <time>2023-09-02T15:59:47Z</time>
      </trkpt>
      <trkpt lat="45.57815" lon="2.63024">
        <ele>905.6</ele>
        <time>2023-09-02T16:00:19Z</time>
      </trkpt>
      <trkpt lat="45.57808" lon="2.63023">
        <ele>906.8</ele>
        <time>2023-09-02T16:00:33Z</time>
      </trkpt>
      <trkpt lat="45.57796" lon="2.63027">
        <ele>907.2</ele>
        <time>2023-09-02T16:00:44Z</time>
      </trkpt>
      <trkpt lat="45.57775" lon="2.63022">
        <ele>907.2</ele>
        <time>2023-09-02T16:01:01Z</time>
      </trkpt>
      <trkpt lat="45.57771" lon="2.63024">
        <ele>907.4</ele>
        <time>2023-09-02T16:01:17Z</time>
      </trkpt>
      <trkpt lat="45.57764" lon="2.63018">
        <ele>907.4</ele>
        <time>2023-09-02T16:01:42Z</time>
      </trkpt>
      <trkpt lat="45.57734" lon="2.6301">
        <ele>908.4</ele>
        <time>2023-09-02T16:02:09Z</time>
      </trkpt>
      <trkpt lat="45.57707" lon="2.63008">
        <ele>910</ele>
        <time>2023-09-02T16:02:33Z</time>
      </trkpt>
      <trkpt lat="45.57681" lon="2.63008">
        <ele>912</ele>
        <time>2023-09-02T16:02:59Z</time>
      </trkpt>
      <trkpt lat="45.57661" lon="2.62999">
        <ele>914.2</ele>
        <time>2023-09-02T16:03:16Z</time>
      </trkpt>
      <trkpt lat="45.57646" lon="2.62991">
        <ele>916.8</ele>
        <time>2023-09-02T16:03:32Z</time>
      </trkpt>
      <trkpt lat="45.57626" lon="2.62989">
        <ele>919.4</ele>
        <time>2023-09-02T16:03:54Z</time>
      </trkpt>
      <trkpt lat="45.57609" lon="2.62993">
        <ele>921.6</ele>
        <time>2023-09-02T16:04:11Z</time>
      </trkpt>
      <trkpt lat="45.576" lon="2.63">
        <ele>923.4</ele>
        <time>2023-09-02T16:04:24Z</time>
      </trkpt>
      <trkpt lat="45.5759" lon="2.63003">
        <ele>925.2</ele>
        <time>2023-09-02T16:04:36Z</time>
      </trkpt>
      <trkpt lat="45.57586" lon="2.63004">
        <ele>926</ele>
        <time>2023-09-02T16:04:41Z</time>
      </trkpt>
      <trkpt lat="45.57572" lon="2.63006">
        <ele>928</ele>
        <time>2023-09-02T16:04:55Z</time>
      </trkpt>
      <trkpt lat="45.57562" lon="2.6301">
        <ele>929</ele>
        <time>2023-09-02T16:05:06Z</time>
      </trkpt>
      <trkpt lat="45.5755" lon="2.63012">
        <ele>929.8</ele>
        <time>2023-09-02T16:05:16Z</time>
      </trkpt>
      <trkpt lat="45.57541" lon="2.63013">
        <ele>930.4</ele>
        <time>2023-09-02T16:05:25Z</time>
      </trkpt>
      <trkpt lat="45.57513" lon="2.63008">
        <ele>931.8</ele>
        <time>2023-09-02T16:05:45Z</time>
      </trkpt>
      <trkpt lat="45.57501" lon="2.63018">
        <ele>932.2</ele>
        <time>2023-09-02T16:05:58Z</time>
      </trkpt>
      <trkpt lat="45.57493" lon="2.63023">
        <ele>933</ele>
        <time>2023-09-02T16:06:11Z</time>
      </trkpt>
      <trkpt lat="45.57486" lon="2.63037">
        <ele>933</ele>
        <time>2023-09-02T16:06:19Z</time>
      </trkpt>
      <trkpt lat="45.57471" lon="2.63056">
        <ele>933.6</ele>
        <time>2023-09-02T16:06:36Z</time>
      </trkpt>
      <trkpt lat="45.57445" lon="2.63094">
        <ele>934.4</ele>
        <time>2023-09-02T16:07:06Z</time>
      </trkpt>
      <trkpt lat="45.57427" lon="2.63125">
        <ele>933.8</ele>
        <time>2023-09-02T16:07:24Z</time>
      </trkpt>
      <trkpt lat="45.57408" lon="2.63148">
        <ele>934.2</ele>
        <time>2023-09-02T16:07:42Z</time>
      </trkpt>
      <trkpt lat="45.5739" lon="2.63173">
        <ele>934.6</ele>
        <time>2023-09-02T16:08:00Z</time>
      </trkpt>
      <trkpt lat="45.57376" lon="2.63194">
        <ele>934.8</ele>
        <time>2023-09-02T16:08:15Z</time>
      </trkpt>
      <trkpt lat="45.57362" lon="2.63212">
        <ele>935.8</ele>
        <time>2023-09-02T16:08:31Z</time>
      </trkpt>
      <trkpt lat="45.57346" lon="2.63235">
        <ele>936.4</ele>
        <time>2023-09-02T16:08:49Z</time>
      </trkpt>
      <trkpt lat="45.57332" lon="2.63255">
        <ele>936.6</ele>
        <time>2023-09-02T16:09:06Z</time>
      </trkpt>
      <trkpt lat="45.57316" lon="2.63278">
        <ele>937</ele>
        <time>2023-09-02T16:09:24Z</time>
      </trkpt>
      <trkpt lat="45.573" lon="2.63295">
        <ele>937.6</ele>
        <time>2023-09-02T16:09:41Z</time>
      </trkpt>
      <trkpt lat="45.573" lon="2.63291">
        <ele>937.8</ele>
        <time>2023-09-02T16:09:51Z</time>
      </trkpt>
      <trkpt lat="45.57299" lon="2.63292">
        <ele>937.8</ele>
        <time>2023-09-02T16:10:00Z</time>
      </trkpt>
      <trkpt lat="45.57298" lon="2.63295">
        <ele>937.8</ele>
        <time>2023-09-02T16:10:02Z</time>
      </trkpt>
      <trkpt lat="45.57286" lon="2.63319">
        <ele>938.2</ele>
        <time>2023-09-02T16:10:21Z</time>
      </trkpt>
      <trkpt lat="45.57269" lon="2.63331">
        <ele>938.6</ele>
        <time>2023-09-02T16:10:40Z</time>
      </trkpt>
      <trkpt lat="45.57256" lon="2.63352">
        <ele>939</ele>
        <time>2023-09-02T16:10:57Z</time>
      </trkpt>
      <trkpt lat="45.57248" lon="2.63368">
        <ele>939.6</ele>
        <time>2023-09-02T16:11:12Z</time>
      </trkpt>
      <trkpt lat="45.57246" lon="2.63371">
        <ele>939.8</ele>
        <time>2023-09-02T16:11:16Z</time>
      </trkpt>
      <trkpt lat="45.57228" lon="2.6337">
        <ele>939.8</ele>
        <time>2023-09-02T16:11:33Z</time>
      </trkpt>
      <trkpt lat="45.57227" lon="2.6337">
        <ele>939.8</ele>
        <time>2023-09-02T16:11:34Z</time>
      </trkpt>
      <trkpt lat="45.57222" lon="2.63369">
        <ele>939.8</ele>
        <time>2023-09-02T16:11:37Z</time>
      </trkpt>
      <trkpt lat="45.57216" lon="2.63373">
        <ele>940</ele>
        <time>2023-09-02T16:11:42Z</time>
      </trkpt>
      <trkpt lat="45.57201" lon="2.63384">
        <ele>940.4</ele>
        <time>2023-09-02T16:11:57Z</time>
      </trkpt>
      <trkpt lat="45.57197" lon="2.63385">
        <ele>940</ele>
        <time>2023-09-02T16:12:01Z</time>
      </trkpt>
      <trkpt lat="45.57187" lon="2.63386">
        <ele>939.4</ele>
        <time>2023-09-02T16:12:08Z</time>
      </trkpt>
      <trkpt lat="45.5717" lon="2.63372">
        <ele>938.2</ele>
        <time>2023-09-02T16:12:25Z</time>
      </trkpt>
      <trkpt lat="45.57163" lon="2.63365">
        <ele>938.2</ele>
        <time>2023-09-02T16:12:32Z</time>
      </trkpt>
      <trkpt lat="45.57159" lon="2.63366">
        <ele>938</ele>
        <time>2023-09-02T16:12:36Z</time>
      </trkpt>
      <trkpt lat="45.57145" lon="2.63371">
        <ele>938</ele>
        <time>2023-09-02T16:12:50Z</time>
      </trkpt>
      <trkpt lat="45.5714" lon="2.63373">
        <ele>938</ele>
        <time>2023-09-02T16:12:55Z</time>
      </trkpt>
      <trkpt lat="45.57119" lon="2.63377">
        <ele>937.4</ele>
        <time>2023-09-02T16:13:14Z</time>
      </trkpt>
      <trkpt lat="45.57098" lon="2.63376">
        <ele>936</ele>
        <time>2023-09-02T16:13:33Z</time>
      </trkpt>
      <trkpt lat="45.57083" lon="2.63376">
        <ele>935</ele>
        <time>2023-09-02T16:13:46Z</time>
      </trkpt>
      <trkpt lat="45.57064" lon="2.63374">
        <ele>933.2</ele>
        <time>2023-09-02T16:14:03Z</time>
      </trkpt>
      <trkpt lat="45.57034" lon="2.63372">
        <ele>930.6</ele>
        <time>2023-09-02T16:14:27Z</time>
      </trkpt>
      <trkpt lat="45.5703" lon="2.63372">
        <ele>930</ele>
        <time>2023-09-02T16:14:31Z</time>
      </trkpt>
      <trkpt lat="45.57011" lon="2.63374">
        <ele>927.4</ele>
        <time>2023-09-02T16:14:48Z</time>
      </trkpt>
      <trkpt lat="45.56999" lon="2.63374">
        <ele>925.2</ele>
        <time>2023-09-02T16:15:02Z</time>
      </trkpt>
      <trkpt lat="45.56986" lon="2.63369">
        <ele>923.4</ele>
        <time>2023-09-02T16:15:15Z</time>
      </trkpt>
      <trkpt lat="45.56964" lon="2.63362">
        <ele>920.6</ele>
        <time>2023-09-02T16:15:33Z</time>
      </trkpt>
      <trkpt lat="45.56954" lon="2.6336">
        <ele>918.8</ele>
        <time>2023-09-02T16:15:47Z</time>
      </trkpt>
      <trkpt lat="45.56945" lon="2.63359">
        <ele>918</ele>
        <time>2023-09-02T16:15:59Z</time>
      </trkpt>
      <trkpt lat="45.56943" lon="2.6336">
        <ele>917.4</ele>
        <time>2023-09-02T16:16:02Z</time>
      </trkpt>
      <trkpt lat="45.56941" lon="2.63359">
        <ele>917.2</ele>
        <time>2023-09-02T16:16:04Z</time>
      </trkpt>
      <trkpt lat="45.56925" lon="2.63358">
        <ele>915.4</ele>
        <time>2023-09-02T16:16:21Z</time>
      </trkpt>
      <trkpt lat="45.56916" lon="2.63358">
        <ele>913.4</ele>
        <time>2023-09-02T16:16:42Z</time>
      </trkpt>
      <trkpt lat="45.56895" lon="2.63355">
        <ele>911.8</ele>
        <time>2023-09-02T16:17:01Z</time>
      </trkpt>
      <trkpt lat="45.56891" lon="2.63353">
        <ele>911.6</ele>
        <time>2023-09-02T16:17:04Z</time>
      </trkpt>
      <trkpt lat="45.56887" lon="2.63352">
        <ele>911.2</ele>
        <time>2023-09-02T16:17:07Z</time>
      </trkpt>
      <trkpt lat="45.56868" lon="2.63345">
        <ele>908.4</ele>
        <time>2023-09-02T16:17:25Z</time>
      </trkpt>
      <trkpt lat="45.5686" lon="2.63342">
        <ele>907</ele>
        <time>2023-09-02T16:17:32Z</time>
      </trkpt>
      <trkpt lat="45.56841" lon="2.63338">
        <ele>904.8</ele>
        <time>2023-09-02T16:17:49Z</time>
      </trkpt>
      <trkpt lat="45.56826" lon="2.63336">
        <ele>902.8</ele>
        <time>2023-09-02T16:18:03Z</time>
      </trkpt>
      <trkpt lat="45.56808" lon="2.63333">
        <ele>901</ele>
        <time>2023-09-02T16:18:16Z</time>
      </trkpt>
      <trkpt lat="45.56793" lon="2.63334">
        <ele>899.4</ele>
        <time>2023-09-02T16:18:31Z</time>
      </trkpt>
      <trkpt lat="45.56781" lon="2.63336">
        <ele>897</ele>
        <time>2023-09-02T16:18:50Z</time>
      </trkpt>
      <trkpt lat="45.5678" lon="2.63337">
        <ele>897</ele>
        <time>2023-09-02T16:18:51Z</time>
      </trkpt>
      <trkpt lat="45.56779" lon="2.63337">
        <ele>896.4</ele>
        <time>2023-09-02T16:19:21Z</time>
      </trkpt>
      <trkpt lat="45.56767" lon="2.63342">
        <ele>895.6</ele>
        <time>2023-09-02T16:19:45Z</time>
      </trkpt>
      <trkpt lat="45.5676" lon="2.63344">
        <ele>895</ele>
        <time>2023-09-02T16:19:55Z</time>
      </trkpt>
      <trkpt lat="45.56756" lon="2.63344">
        <ele>894.8</ele>
        <time>2023-09-02T16:19:59Z</time>
      </trkpt>
      <trkpt lat="45.56737" lon="2.63351">
        <ele>893.8</ele>
        <time>2023-09-02T16:20:14Z</time>
      </trkpt>
      <trkpt lat="45.56733" lon="2.63352">
        <ele>892</ele>
        <time>2023-09-02T16:20:26Z</time>
      </trkpt>
      <trkpt lat="45.56729" lon="2.63353">
        <ele>891.8</ele>
        <time>2023-09-02T16:20:29Z</time>
      </trkpt>
      <trkpt lat="45.56723" lon="2.63351">
        <ele>891.6</ele>
        <time>2023-09-02T16:20:41Z</time>
      </trkpt>
      <trkpt lat="45.56722" lon="2.6335">
        <ele>891.6</ele>
        <time>2023-09-02T16:20:43Z</time>
      </trkpt>
      <trkpt lat="45.5672" lon="2.63353">
        <ele>891.6</ele>
        <time>2023-09-02T16:20:45Z</time>
      </trkpt>
      <trkpt lat="45.56703" lon="2.63359">
        <ele>890.8</ele>
        <time>2023-09-02T16:21:01Z</time>
      </trkpt>
      <trkpt lat="45.56681" lon="2.63361">
        <ele>889.4</ele>
        <time>2023-09-02T16:21:17Z</time>
      </trkpt>
      <trkpt lat="45.56665" lon="2.63361">
        <ele>888.6</ele>
        <time>2023-09-02T16:21:30Z</time>
      </trkpt>
      <trkpt lat="45.56647" lon="2.63368">
        <ele>886.6</ele>
        <time>2023-09-02T16:21:44Z</time>
      </trkpt>
      <trkpt lat="45.5664" lon="2.63371">
        <ele>886.4</ele>
        <time>2023-09-02T16:21:49Z</time>
      </trkpt>
      <trkpt lat="45.5662" lon="2.63382">
        <ele>884.8</ele>
        <time>2023-09-02T16:22:05Z</time>
      </trkpt>
      <trkpt lat="45.56612" lon="2.63385">
        <ele>884</ele>
        <time>2023-09-02T16:22:11Z</time>
      </trkpt>
      <trkpt lat="45.56606" lon="2.63389">
        <ele>883.4</ele>
        <time>2023-09-02T16:22:17Z</time>
      </trkpt>
      <trkpt lat="45.56594" lon="2.63389">
        <ele>883</ele>
        <time>2023-09-02T16:22:27Z</time>
      </trkpt>
      <trkpt lat="45.56575" lon="2.63403">
        <ele>881.4</ele>
        <time>2023-09-02T16:22:45Z</time>
      </trkpt>
      <trkpt lat="45.56558" lon="2.63417">
        <ele>879.6</ele>
        <time>2023-09-02T16:23:02Z</time>
      </trkpt>
      <trkpt lat="45.56542" lon="2.63431">
        <ele>876.2</ele>
        <time>2023-09-02T16:23:19Z</time>
      </trkpt>
      <trkpt lat="45.56527" lon="2.63441">
        <ele>873.6</ele>
        <time>2023-09-02T16:23:33Z</time>
      </trkpt>
      <trkpt lat="45.56513" lon="2.63452">
        <ele>870.6</ele>
        <time>2023-09-02T16:23:47Z</time>
      </trkpt>
      <trkpt lat="45.56509" lon="2.63454">
        <ele>870</ele>
        <time>2023-09-02T16:23:51Z</time>
      </trkpt>
      <trkpt lat="45.56508" lon="2.63454">
        <ele>869.8</ele>
        <time>2023-09-02T16:23:52Z</time>
      </trkpt>
      <trkpt lat="45.56486" lon="2.63451">
        <ele>867</ele>
        <time>2023-09-02T16:24:08Z</time>
      </trkpt>
      <trkpt lat="45.56463" lon="2.63445">
        <ele>863.8</ele>
        <time>2023-09-02T16:24:25Z</time>
      </trkpt>
      <trkpt lat="45.56448" lon="2.63444">
        <ele>861.4</ele>
        <time>2023-09-02T16:24:38Z</time>
      </trkpt>
      <trkpt lat="45.56429" lon="2.63436">
        <ele>859</ele>
        <time>2023-09-02T16:24:53Z</time>
      </trkpt>
      <trkpt lat="45.56409" lon="2.6342">
        <ele>856</ele>
        <time>2023-09-02T16:25:12Z</time>
      </trkpt>
      <trkpt lat="45.5639" lon="2.63402">
        <ele>853.2</ele>
        <time>2023-09-02T16:25:30Z</time>
      </trkpt>
      <trkpt lat="45.56374" lon="2.6338">
        <ele>851.4</ele>
        <time>2023-09-02T16:25:47Z</time>
      </trkpt>
      <trkpt lat="45.56369" lon="2.63375">
        <ele>851</ele>
        <time>2023-09-02T16:25:51Z</time>
      </trkpt>
      <trkpt lat="45.56367" lon="2.63375">
        <ele>850.8</ele>
        <time>2023-09-02T16:25:52Z</time>
      </trkpt>
      <trkpt lat="45.56366" lon="2.63374">
        <ele>850.6</ele>
        <time>2023-09-02T16:25:53Z</time>
      </trkpt>
      <trkpt lat="45.56362" lon="2.63372">
        <ele>850</ele>
        <time>2023-09-02T16:25:57Z</time>
      </trkpt>
      <trkpt lat="45.5636" lon="2.63372">
        <ele>849.6</ele>
        <time>2023-09-02T16:25:59Z</time>
      </trkpt>
      <trkpt lat="45.56342" lon="2.6336">
        <ele>847.8</ele>
        <time>2023-09-02T16:26:16Z</time>
      </trkpt>
      <trkpt lat="45.5632" lon="2.63342">
        <ele>844.8</ele>
        <time>2023-09-02T16:26:37Z</time>
      </trkpt>
      <trkpt lat="45.56299" lon="2.63327">
        <ele>842.4</ele>
        <time>2023-09-02T16:26:56Z</time>
      </trkpt>
      <trkpt lat="45.56284" lon="2.63303">
        <ele>842.4</ele>
        <time>2023-09-02T16:27:14Z</time>
      </trkpt>
      <trkpt lat="45.5627" lon="2.6328">
        <ele>843</ele>
        <time>2023-09-02T16:27:32Z</time>
      </trkpt>
      <trkpt lat="45.56253" lon="2.63256">
        <ele>843.8</ele>
        <time>2023-09-02T16:27:51Z</time>
      </trkpt>
      <trkpt lat="45.56234" lon="2.63232">
        <ele>845.2</ele>
        <time>2023-09-02T16:28:11Z</time>
      </trkpt>
      <trkpt lat="45.56212" lon="2.63204">
        <ele>846.4</ele>
        <time>2023-09-02T16:28:35Z</time>
      </trkpt>
      <trkpt lat="45.56202" lon="2.6319">
        <ele>846.8</ele>
        <time>2023-09-02T16:28:47Z</time>
      </trkpt>
      <trkpt lat="45.56201" lon="2.63189">
        <ele>846.8</ele>
        <time>2023-09-02T16:28:48Z</time>
      </trkpt>
      <trkpt lat="45.562" lon="2.63188">
        <ele>846.8</ele>
        <time>2023-09-02T16:28:49Z</time>
      </trkpt>
      <trkpt lat="45.56199" lon="2.63187">
        <ele>846.8</ele>
        <time>2023-09-02T16:28:50Z</time>
      </trkpt>
      <trkpt lat="45.56198" lon="2.63186">
        <ele>847</ele>
        <time>2023-09-02T16:28:51Z</time>
      </trkpt>
      <trkpt lat="45.5618" lon="2.63157">
        <ele>848</ele>
        <time>2023-09-02T16:29:13Z</time>
      </trkpt>
      <trkpt lat="45.56161" lon="2.63123">
        <ele>849.2</ele>
        <time>2023-09-02T16:29:37Z</time>
      </trkpt>
      <trkpt lat="45.56145" lon="2.63084">
        <ele>850.2</ele>
        <time>2023-09-02T16:30:02Z</time>
      </trkpt>
      <trkpt lat="45.56136" lon="2.63054">
        <ele>850.6</ele>
        <time>2023-09-02T16:30:20Z</time>
      </trkpt>
      <trkpt lat="45.56127" lon="2.63023">
        <ele>851</ele>
        <time>2023-09-02T16:30:38Z</time>
      </trkpt>
      <trkpt lat="45.56122" lon="2.62996">
        <ele>851</ele>
        <time>2023-09-02T16:30:55Z</time>
      </trkpt>
      <trkpt lat="45.5612" lon="2.62992">
        <ele>851</ele>
        <time>2023-09-02T16:30:58Z</time>
      </trkpt>
      <trkpt lat="45.56112" lon="2.62957">
        <ele>850.8</ele>
        <time>2023-09-02T16:31:18Z</time>
      </trkpt>
      <trkpt lat="45.56104" lon="2.62923">
        <ele>849.8</ele>
        <time>2023-09-02T16:31:38Z</time>
      </trkpt>
      <trkpt lat="45.56095" lon="2.62886">
        <ele>848.4</ele>
        <time>2023-09-02T16:31:59Z</time>
      </trkpt>
      <trkpt lat="45.56087" lon="2.62856">
        <ele>847.4</ele>
        <time>2023-09-02T16:32:16Z</time>
      </trkpt>
      <trkpt lat="45.56079" lon="2.62832">
        <ele>846.8</ele>
        <time>2023-09-02T16:32:30Z</time>
      </trkpt>
      <trkpt lat="45.56077" lon="2.62818">
        <ele>846.2</ele>
        <time>2023-09-02T16:32:41Z</time>
      </trkpt>
      <trkpt lat="45.56074" lon="2.62803">
        <ele>845.8</ele>
        <time>2023-09-02T16:32:52Z</time>
      </trkpt>
      <trkpt lat="45.56074" lon="2.62801">
        <ele>845.6</ele>
        <time>2023-09-02T16:32:53Z</time>
      </trkpt>
      <trkpt lat="45.56075" lon="2.62799">
        <ele>845.6</ele>
        <time>2023-09-02T16:32:54Z</time>
      </trkpt>
      <trkpt lat="45.56075" lon="2.62797">
        <ele>845.6</ele>
        <time>2023-09-02T16:32:55Z</time>
      </trkpt>
      <trkpt lat="45.56076" lon="2.62795">
        <ele>845.6</ele>
        <time>2023-09-02T16:32:56Z</time>
      </trkpt>
      <trkpt lat="45.56076" lon="2.62793">
        <ele>845.6</ele>
        <time>2023-09-02T16:32:57Z</time>
      </trkpt>
      <trkpt lat="45.56088" lon="2.62758">
        <ele>844.6</ele>
        <time>2023-09-02T16:33:18Z</time>
      </trkpt>
      <trkpt lat="45.56093" lon="2.62729">
        <ele>843.6</ele>
        <time>2023-09-02T16:33:35Z</time>
      </trkpt>
      <trkpt lat="45.56087" lon="2.62706">
        <ele>843.2</ele>
        <time>2023-09-02T16:33:52Z</time>
      </trkpt>
      <trkpt lat="45.56079" lon="2.62691">
        <ele>843</ele>
        <time>2023-09-02T16:34:03Z</time>
      </trkpt>
      <trkpt lat="45.56059" lon="2.62673">
        <ele>843</ele>
        <time>2023-09-02T16:34:21Z</time>
      </trkpt>
      <trkpt lat="45.56053" lon="2.62665">
        <ele>843.2</ele>
        <time>2023-09-02T16:34:29Z</time>
      </trkpt>
      <trkpt lat="45.56052" lon="2.62664">
        <ele>843.2</ele>
        <time>2023-09-02T16:34:30Z</time>
      </trkpt>
      <trkpt lat="45.56051" lon="2.62663">
        <ele>843.2</ele>
        <time>2023-09-02T16:34:31Z</time>
      </trkpt>
      <trkpt lat="45.5605" lon="2.62661">
        <ele>843.2</ele>
        <time>2023-09-02T16:34:32Z</time>
      </trkpt>
      <trkpt lat="45.56049" lon="2.62659">
        <ele>843.2</ele>
        <time>2023-09-02T16:34:33Z</time>
      </trkpt>
      <trkpt lat="45.56043" lon="2.62647">
        <ele>843.8</ele>
        <time>2023-09-02T16:34:43Z</time>
      </trkpt>
      <trkpt lat="45.56042" lon="2.62645">
        <ele>843.8</ele>
        <time>2023-09-02T16:34:44Z</time>
      </trkpt>
      <trkpt lat="45.56041" lon="2.62643">
        <ele>843.8</ele>
        <time>2023-09-02T16:34:45Z</time>
      </trkpt>
      <trkpt lat="45.56041" lon="2.62642">
        <ele>843.8</ele>
        <time>2023-09-02T16:34:46Z</time>
      </trkpt>
      <trkpt lat="45.5604" lon="2.62641">
        <ele>843.8</ele>
        <time>2023-09-02T16:34:47Z</time>
      </trkpt>
      <trkpt lat="45.56039" lon="2.62639">
        <ele>843.8</ele>
        <time>2023-09-02T16:34:48Z</time>
      </trkpt>
      <trkpt lat="45.56038" lon="2.62637">
        <ele>843.8</ele>
        <time>2023-09-02T16:34:49Z</time>
      </trkpt>
      <trkpt lat="45.56025" lon="2.62608">
        <ele>844.6</ele>
        <time>2023-09-02T16:35:10Z</time>
      </trkpt>
      <trkpt lat="45.56015" lon="2.62585">
        <ele>845.8</ele>
        <time>2023-09-02T16:35:28Z</time>
      </trkpt>
      <trkpt lat="45.56013" lon="2.62579">
        <ele>846.4</ele>
        <time>2023-09-02T16:35:35Z</time>
      </trkpt>
      <trkpt lat="45.56013" lon="2.62578">
        <ele>846.4</ele>
        <time>2023-09-02T16:35:36Z</time>
      </trkpt>
      <trkpt lat="45.56012" lon="2.62576">
        <ele>846.4</ele>
        <time>2023-09-02T16:35:37Z</time>
      </trkpt>
      <trkpt lat="45.56011" lon="2.62574">
        <ele>846.6</ele>
        <time>2023-09-02T16:35:38Z</time>
      </trkpt>
      <trkpt lat="45.5601" lon="2.62571">
        <ele>846.6</ele>
        <time>2023-09-02T16:35:40Z</time>
      </trkpt>
      <trkpt lat="45.56009" lon="2.62569">
        <ele>846.6</ele>
        <time>2023-09-02T16:35:41Z</time>
      </trkpt>
      <trkpt lat="45.56008" lon="2.62567">
        <ele>846.8</ele>
        <time>2023-09-02T16:35:42Z</time>
      </trkpt>
      <trkpt lat="45.56008" lon="2.62566">
        <ele>846.8</ele>
        <time>2023-09-02T16:35:43Z</time>
      </trkpt>
      <trkpt lat="45.56007" lon="2.62564">
        <ele>846.8</ele>
        <time>2023-09-02T16:35:44Z</time>
      </trkpt>
      <trkpt lat="45.56006" lon="2.62563">
        <ele>847</ele>
        <time>2023-09-02T16:35:45Z</time>
      </trkpt>
      <trkpt lat="45.56006" lon="2.62562">
        <ele>847</ele>
        <time>2023-09-02T16:35:46Z</time>
      </trkpt>
      <trkpt lat="45.55999" lon="2.62541">
        <ele>847.6</ele>
        <time>2023-09-02T16:36:00Z</time>
      </trkpt>
      <trkpt lat="45.55989" lon="2.62522">
        <ele>848</ele>
        <time>2023-09-02T16:36:16Z</time>
      </trkpt>
      <trkpt lat="45.55988" lon="2.62519">
        <ele>848.2</ele>
        <time>2023-09-02T16:36:19Z</time>
      </trkpt>
      <trkpt lat="45.55987" lon="2.62516">
        <ele>848.2</ele>
        <time>2023-09-02T16:36:21Z</time>
      </trkpt>
      <trkpt lat="45.55986" lon="2.62515">
        <ele>848.2</ele>
        <time>2023-09-02T16:36:22Z</time>
      </trkpt>
      <trkpt lat="45.55985" lon="2.62513">
        <ele>848.2</ele>
        <time>2023-09-02T16:36:23Z</time>
      </trkpt>
      <trkpt lat="45.55984" lon="2.62511">
        <ele>848.2</ele>
        <time>2023-09-02T16:36:24Z</time>
      </trkpt>
      <trkpt lat="45.55984" lon="2.6251">
        <ele>848.2</ele>
        <time>2023-09-02T16:36:25Z</time>
      </trkpt>
      <trkpt lat="45.55974" lon="2.62487">
        <ele>848.6</ele>
        <time>2023-09-02T16:36:38Z</time>
      </trkpt>
      <trkpt lat="45.55969" lon="2.62461">
        <ele>848.6</ele>
        <time>2023-09-02T16:36:52Z</time>
      </trkpt>
      <trkpt lat="45.55971" lon="2.62457">
        <ele>848.6</ele>
        <time>2023-09-02T16:36:57Z</time>
      </trkpt>
      <trkpt lat="45.55977" lon="2.6245">
        <ele>849</ele>
        <time>2023-09-02T16:37:05Z</time>
      </trkpt>
      <trkpt lat="45.55985" lon="2.62445">
        <ele>850</ele>
        <time>2023-09-02T16:37:14Z</time>
      </trkpt>
      <trkpt lat="45.55992" lon="2.62437">
        <ele>850.2</ele>
        <time>2023-09-02T16:37:21Z</time>
      </trkpt>
      <trkpt lat="45.5601" lon="2.62442">
        <ele>850</ele>
        <time>2023-09-02T16:37:36Z</time>
      </trkpt>
      <trkpt lat="45.5603" lon="2.6245">
        <ele>850.4</ele>
        <time>2023-09-02T16:37:53Z</time>
      </trkpt>
      <trkpt lat="45.56041" lon="2.62451">
        <ele>851.6</ele>
        <time>2023-09-02T16:38:07Z</time>
      </trkpt>
      <trkpt lat="45.56044" lon="2.62452">
        <ele>852</ele>
        <time>2023-09-02T16:38:12Z</time>
      </trkpt>
      <trkpt lat="45.56045" lon="2.62452">
        <ele>852</ele>
        <time>2023-09-02T16:38:13Z</time>
      </trkpt>
      <trkpt lat="45.56046" lon="2.62452">
        <ele>852.2</ele>
        <time>2023-09-02T16:38:14Z</time>
      </trkpt>
      <trkpt lat="45.56061" lon="2.62452">
        <ele>853.4</ele>
        <time>2023-09-02T16:38:32Z</time>
      </trkpt>
      <trkpt lat="45.56062" lon="2.62452">
        <ele>853.6</ele>
        <time>2023-09-02T16:38:33Z</time>
      </trkpt>
      <trkpt lat="45.56063" lon="2.62452">
        <ele>853.8</ele>
        <time>2023-09-02T16:38:34Z</time>
      </trkpt>
      <trkpt lat="45.56064" lon="2.62452">
        <ele>853.8</ele>
        <time>2023-09-02T16:38:35Z</time>
      </trkpt>
      <trkpt lat="45.56076" lon="2.6245">
        <ele>854.4</ele>
        <time>2023-09-02T16:38:49Z</time>
      </trkpt>
      <trkpt lat="45.56089" lon="2.6245">
        <ele>855.8</ele>
        <time>2023-09-02T16:39:03Z</time>
      </trkpt>
      <trkpt lat="45.56092" lon="2.62451">
        <ele>855.8</ele>
        <time>2023-09-02T16:39:05Z</time>
      </trkpt>
      <trkpt lat="45.56093" lon="2.62452">
        <ele>855.8</ele>
        <time>2023-09-02T16:39:06Z</time>
      </trkpt>
      <trkpt lat="45.56094" lon="2.62454">
        <ele>856</ele>
        <time>2023-09-02T16:39:07Z</time>
      </trkpt>
      <trkpt lat="45.56095" lon="2.62455">
        <ele>856</ele>
        <time>2023-09-02T16:39:08Z</time>
      </trkpt>
      <trkpt lat="45.56096" lon="2.62457">
        <ele>856.2</ele>
        <time>2023-09-02T16:39:09Z</time>
      </trkpt>
      <trkpt lat="45.56103" lon="2.62479">
        <ele>857</ele>
        <time>2023-09-02T16:39:23Z</time>
      </trkpt>
      <trkpt lat="45.56111" lon="2.62504">
        <ele>857.2</ele>
        <time>2023-09-02T16:39:38Z</time>
      </trkpt>
      <trkpt lat="45.5612" lon="2.62529">
        <ele>857.2</ele>
        <time>2023-09-02T16:39:55Z</time>
      </trkpt>
      <trkpt lat="45.56125" lon="2.62537">
        <ele>857.2</ele>
        <time>2023-09-02T16:40:01Z</time>
      </trkpt>
      <trkpt lat="45.56126" lon="2.62539">
        <ele>857.2</ele>
        <time>2023-09-02T16:40:02Z</time>
      </trkpt>
      <trkpt lat="45.56136" lon="2.62568">
        <ele>856.2</ele>
        <time>2023-09-02T16:40:20Z</time>
      </trkpt>
      <trkpt lat="45.56135" lon="2.6257">
        <ele>856</ele>
        <time>2023-09-02T16:40:22Z</time>
      </trkpt>
      <trkpt lat="45.56121" lon="2.62608">
        <ele>854.2</ele>
        <time>2023-09-02T16:40:41Z</time>
      </trkpt>
      <trkpt lat="45.56119" lon="2.6263">
        <ele>852</ele>
        <time>2023-09-02T16:40:55Z</time>
      </trkpt>
      <trkpt lat="45.56119" lon="2.62635">
        <ele>850.6</ele>
        <time>2023-09-02T16:41:02Z</time>
      </trkpt>
    </trkseg>
  </trk>
</gpx>